<?xml version="1.0" encoding="UTF-8" standalone="no" ?>
<gpx xmlns="http://www.topografix.com/GPX/1/1" xmlns:xsi="http://www.w3.org/2001/XMLSchema-instance" xsi:schemaLocation="http://www.topografix.com/GPX/1/1 http://www.topografix.com/GPX/1/1/gpx.xsd" version="1.1" creator="VisuGPX - https://www.visugpx.com">
  <metadata>
    <name>GTH2017-E1</name>
    <desc><![CDATA[Montpellier Gare - Fondespierre - Lauret - Proposition]]></desc>
  </metadata>
  <trk>
    <name><![CDATA[OR-6904542--Montpellier:GTH2017-E1V1]]></name>
    <trkseg>
      <trkpt lat="43.605" lon="3.88068">
        <ele>34</ele>
        <time>2017-01-02T18:42:23Z</time>
      </trkpt>
      <trkpt lat="43.6056" lon="3.88158">
        <ele>35</ele>
        <time>2017-01-02T18:44:23Z</time>
      </trkpt>
      <trkpt lat="43.60566" lon="3.88177">
        <ele>35</ele>
        <time>2017-01-02T18:46:23Z</time>
      </trkpt>
      <trkpt lat="43.60571" lon="3.88213">
        <ele>35</ele>
        <time>2017-01-02T18:48:23Z</time>
      </trkpt>
      <trkpt lat="43.60564" lon="3.88226">
        <ele>35</ele>
        <time>2017-01-02T18:50:23Z</time>
      </trkpt>
      <trkpt lat="43.60574" lon="3.88239">
        <ele>35</ele>
        <time>2017-01-02T18:52:23Z</time>
      </trkpt>
      <trkpt lat="43.60654" lon="3.88297">
        <ele>33</ele>
        <time>2017-01-02T18:54:23Z</time>
      </trkpt>
      <trkpt lat="43.60705" lon="3.88327">
        <ele>32</ele>
        <time>2017-01-02T18:56:23Z</time>
      </trkpt>
      <trkpt lat="43.60751" lon="3.88346">
        <ele>32</ele>
        <time>2017-01-02T18:58:23Z</time>
      </trkpt>
      <trkpt lat="43.60789" lon="3.88356">
        <ele>35</ele>
        <time>2017-01-02T19:00:23Z</time>
      </trkpt>
      <trkpt lat="43.608" lon="3.88365">
        <ele>36</ele>
        <time>2017-01-02T19:02:23Z</time>
      </trkpt>
      <trkpt lat="43.60803" lon="3.88386">
        <ele>36</ele>
        <time>2017-01-02T19:04:23Z</time>
      </trkpt>
      <trkpt lat="43.60755" lon="3.88485">
        <ele>33</ele>
        <time>2017-01-02T19:06:23Z</time>
      </trkpt>
      <trkpt lat="43.60744" lon="3.88528">
        <ele>31</ele>
        <time>2017-01-02T19:08:23Z</time>
      </trkpt>
      <trkpt lat="43.6075" lon="3.88573">
        <ele>29</ele>
        <time>2017-01-02T19:10:23Z</time>
      </trkpt>
      <trkpt lat="43.6075" lon="3.88628">
        <ele>27</ele>
        <time>2017-01-02T19:12:23Z</time>
      </trkpt>
      <trkpt lat="43.60754" lon="3.88641">
        <ele>27</ele>
        <time>2017-01-02T19:14:23Z</time>
      </trkpt>
      <trkpt lat="43.60738" lon="3.88636">
        <ele>27</ele>
        <time>2017-01-02T19:16:23Z</time>
      </trkpt>
      <trkpt lat="43.60705" lon="3.89037">
        <ele>26</ele>
        <time>2017-01-02T19:18:23Z</time>
      </trkpt>
      <trkpt lat="43.60682" lon="3.89383">
        <ele>21</ele>
        <time>2017-01-02T19:20:23Z</time>
      </trkpt>
      <trkpt lat="43.60697" lon="3.89383">
        <ele>21</ele>
        <time>2017-01-02T19:22:23Z</time>
      </trkpt>
      <trkpt lat="43.60698" lon="3.89408">
        <ele>21</ele>
        <time>2017-01-02T19:24:23Z</time>
      </trkpt>
      <trkpt lat="43.60704" lon="3.8941">
        <ele>21</ele>
        <time>2017-01-02T19:26:23Z</time>
      </trkpt>
      <trkpt lat="43.60743" lon="3.89422">
        <ele>21</ele>
        <time>2017-01-02T19:28:23Z</time>
      </trkpt>
      <trkpt lat="43.60775" lon="3.8942">
        <ele>20</ele>
        <time>2017-01-02T19:30:23Z</time>
      </trkpt>
      <trkpt lat="43.60775" lon="3.89446">
        <ele>19</ele>
        <time>2017-01-02T19:32:23Z</time>
      </trkpt>
      <trkpt lat="43.60809" lon="3.89465">
        <ele>19</ele>
        <time>2017-01-02T19:34:23Z</time>
      </trkpt>
      <trkpt lat="43.60845" lon="3.89505">
        <ele>19</ele>
        <time>2017-01-02T19:36:23Z</time>
      </trkpt>
      <trkpt lat="43.6086" lon="3.89562">
        <ele>19</ele>
        <time>2017-01-02T19:38:23Z</time>
      </trkpt>
      <trkpt lat="43.60858" lon="3.89618">
        <ele>17</ele>
        <time>2017-01-02T19:40:23Z</time>
      </trkpt>
      <trkpt lat="43.60839" lon="3.89625">
        <ele>17</ele>
        <time>2017-01-02T19:42:23Z</time>
      </trkpt>
      <trkpt lat="43.60834" lon="3.8968">
        <ele>13</ele>
        <time>2017-01-02T19:44:23Z</time>
      </trkpt>
      <trkpt lat="43.60828" lon="3.89773">
        <ele>14</ele>
        <time>2017-01-02T19:46:23Z</time>
      </trkpt>
      <trkpt lat="43.60849" lon="3.89773">
        <ele>14</ele>
        <time>2017-01-02T19:48:23Z</time>
      </trkpt>
      <trkpt lat="43.60887" lon="3.89754">
        <ele>13</ele>
        <time>2017-01-02T19:50:23Z</time>
      </trkpt>
      <trkpt lat="43.60933" lon="3.89747">
        <ele>13</ele>
        <time>2017-01-02T19:52:23Z</time>
      </trkpt>
      <trkpt lat="43.60964" lon="3.89772">
        <ele>15</ele>
        <time>2017-01-02T19:54:23Z</time>
      </trkpt>
      <trkpt lat="43.60974" lon="3.89861">
        <ele>17</ele>
        <time>2017-01-02T19:56:23Z</time>
      </trkpt>
      <trkpt lat="43.60999" lon="3.89868">
        <ele>18</ele>
        <time>2017-01-02T19:58:23Z</time>
      </trkpt>
      <trkpt lat="43.61003" lon="3.89895">
        <ele>18</ele>
        <time>2017-01-02T20:00:23Z</time>
      </trkpt>
      <trkpt lat="43.61015" lon="3.89892">
        <ele>18</ele>
        <time>2017-01-02T20:02:23Z</time>
      </trkpt>
      <trkpt lat="43.61021" lon="3.89898">
        <ele>17</ele>
        <time>2017-01-02T20:04:23Z</time>
      </trkpt>
      <trkpt lat="43.61014" lon="3.89929">
        <ele>18</ele>
        <time>2017-01-02T20:06:23Z</time>
      </trkpt>
      <trkpt lat="43.61021" lon="3.89963">
        <ele>18</ele>
        <time>2017-01-02T20:08:23Z</time>
      </trkpt>
      <trkpt lat="43.61017" lon="3.89991">
        <ele>19</ele>
        <time>2017-01-02T20:10:23Z</time>
      </trkpt>
      <trkpt lat="43.61022" lon="3.90029">
        <ele>20</ele>
        <time>2017-01-02T20:12:23Z</time>
      </trkpt>
      <trkpt lat="43.61047" lon="3.90137">
        <ele>25</ele>
        <time>2017-01-02T20:14:23Z</time>
      </trkpt>
      <trkpt lat="43.6102" lon="3.90238">
        <ele>30</ele>
        <time>2017-01-02T20:16:23Z</time>
      </trkpt>
      <trkpt lat="43.61016" lon="3.90347">
        <ele>28</ele>
        <time>2017-01-02T20:18:23Z</time>
      </trkpt>
      <trkpt lat="43.61021" lon="3.90366">
        <ele>27</ele>
        <time>2017-01-02T20:20:23Z</time>
      </trkpt>
      <trkpt lat="43.6102" lon="3.90402">
        <ele>26</ele>
        <time>2017-01-02T20:22:23Z</time>
      </trkpt>
      <trkpt lat="43.61029" lon="3.90424">
        <ele>26</ele>
        <time>2017-01-02T20:24:23Z</time>
      </trkpt>
      <trkpt lat="43.61033" lon="3.90471">
        <ele>27</ele>
        <time>2017-01-02T20:26:23Z</time>
      </trkpt>
      <trkpt lat="43.6103" lon="3.90594">
        <ele>31</ele>
        <time>2017-01-02T20:28:23Z</time>
      </trkpt>
      <trkpt lat="43.61023" lon="3.90601">
        <ele>31</ele>
        <time>2017-01-02T20:30:23Z</time>
      </trkpt>
      <trkpt lat="43.61025" lon="3.90611">
        <ele>31</ele>
        <time>2017-01-02T20:32:23Z</time>
      </trkpt>
      <trkpt lat="43.6102" lon="3.90652">
        <ele>30</ele>
        <time>2017-01-02T20:34:23Z</time>
      </trkpt>
      <trkpt lat="43.61025" lon="3.90661">
        <ele>30</ele>
        <time>2017-01-02T20:36:23Z</time>
      </trkpt>
      <trkpt lat="43.61018" lon="3.90674">
        <ele>29</ele>
        <time>2017-01-02T20:38:23Z</time>
      </trkpt>
      <trkpt lat="43.60996" lon="3.90768">
        <ele>27</ele>
        <time>2017-01-02T20:40:23Z</time>
      </trkpt>
      <trkpt lat="43.60987" lon="3.90798">
        <ele>26</ele>
        <time>2017-01-02T20:42:23Z</time>
      </trkpt>
      <trkpt lat="43.60988" lon="3.90817">
        <ele>26</ele>
        <time>2017-01-02T20:44:23Z</time>
      </trkpt>
      <trkpt lat="43.60968" lon="3.90888">
        <ele>24</ele>
        <time>2017-01-02T20:46:23Z</time>
      </trkpt>
      <trkpt lat="43.60974" lon="3.90901">
        <ele>24</ele>
        <time>2017-01-02T20:48:23Z</time>
      </trkpt>
      <trkpt lat="43.60985" lon="3.90947">
        <ele>24</ele>
        <time>2017-01-02T20:50:23Z</time>
      </trkpt>
      <trkpt lat="43.60985" lon="3.90962">
        <ele>23</ele>
        <time>2017-01-02T20:52:23Z</time>
      </trkpt>
      <trkpt lat="43.60995" lon="3.91012">
        <ele>23</ele>
        <time>2017-01-02T20:54:23Z</time>
      </trkpt>
      <trkpt lat="43.61002" lon="3.91067">
        <ele>22</ele>
        <time>2017-01-02T20:56:23Z</time>
      </trkpt>
      <trkpt lat="43.61008" lon="3.91231">
        <ele>24</ele>
        <time>2017-01-02T20:58:23Z</time>
      </trkpt>
      <trkpt lat="43.61013" lon="3.9125">
        <ele>24</ele>
        <time>2017-01-02T21:00:23Z</time>
      </trkpt>
      <trkpt lat="43.61011" lon="3.91271">
        <ele>24</ele>
        <time>2017-01-02T21:02:23Z</time>
      </trkpt>
      <trkpt lat="43.61053" lon="3.9147">
        <ele>26</ele>
        <time>2017-01-02T21:04:23Z</time>
      </trkpt>
      <trkpt lat="43.61061" lon="3.91477">
        <ele>26</ele>
        <time>2017-01-02T21:06:23Z</time>
      </trkpt>
      <trkpt lat="43.61132" lon="3.91474">
        <ele>26</ele>
        <time>2017-01-02T21:08:23Z</time>
      </trkpt>
      <trkpt lat="43.61142" lon="3.91469">
        <ele>26</ele>
        <time>2017-01-02T21:10:23Z</time>
      </trkpt>
      <trkpt lat="43.61218" lon="3.91465">
        <ele>26</ele>
        <time>2017-01-02T21:12:23Z</time>
      </trkpt>
      <trkpt lat="43.61424" lon="3.91454">
        <ele>24</ele>
        <time>2017-01-02T21:14:23Z</time>
      </trkpt>
      <trkpt lat="43.61554" lon="3.9145">
        <ele>28</ele>
        <time>2017-01-02T21:16:23Z</time>
      </trkpt>
      <trkpt lat="43.61769" lon="3.91341">
        <ele>34</ele>
        <time>2017-01-02T21:18:23Z</time>
      </trkpt>
      <trkpt lat="43.61797" lon="3.91333">
        <ele>33</ele>
        <time>2017-01-02T21:20:23Z</time>
      </trkpt>
      <trkpt lat="43.61809" lon="3.91326">
        <ele>32</ele>
        <time>2017-01-02T21:22:23Z</time>
      </trkpt>
      <trkpt lat="43.61817" lon="3.91352">
        <ele>31</ele>
        <time>2017-01-02T21:24:23Z</time>
      </trkpt>
      <trkpt lat="43.6182" lon="3.91363">
        <ele>30</ele>
        <time>2017-01-02T21:26:23Z</time>
      </trkpt>
      <trkpt lat="43.61829" lon="3.91361">
        <ele>30</ele>
        <time>2017-01-02T21:28:23Z</time>
      </trkpt>
      <trkpt lat="43.61843" lon="3.91375">
        <ele>29</ele>
        <time>2017-01-02T21:30:23Z</time>
      </trkpt>
      <trkpt lat="43.6186" lon="3.91379">
        <ele>29</ele>
        <time>2017-01-02T21:32:23Z</time>
      </trkpt>
      <trkpt lat="43.61872" lon="3.91377">
        <ele>30</ele>
        <time>2017-01-02T21:34:23Z</time>
      </trkpt>
      <trkpt lat="43.6188" lon="3.91376">
        <ele>30</ele>
        <time>2017-01-02T21:36:23Z</time>
      </trkpt>
      <trkpt lat="43.6189" lon="3.9136">
        <ele>30</ele>
        <time>2017-01-02T21:38:23Z</time>
      </trkpt>
      <trkpt lat="43.61902" lon="3.91354">
        <ele>31</ele>
        <time>2017-01-02T21:40:23Z</time>
      </trkpt>
      <trkpt lat="43.61909" lon="3.9138">
        <ele>30</ele>
        <time>2017-01-02T21:42:23Z</time>
      </trkpt>
      <trkpt lat="43.61959" lon="3.91441">
        <ele>32</ele>
        <time>2017-01-02T21:44:23Z</time>
      </trkpt>
      <trkpt lat="43.61987" lon="3.91467">
        <ele>34</ele>
        <time>2017-01-02T21:46:23Z</time>
      </trkpt>
      <trkpt lat="43.62197" lon="3.91686">
        <ele>37</ele>
        <time>2017-01-02T21:48:23Z</time>
      </trkpt>
      <trkpt lat="43.62212" lon="3.91682">
        <ele>37</ele>
        <time>2017-01-02T21:50:23Z</time>
      </trkpt>
      <trkpt lat="43.62226" lon="3.91687">
        <ele>37</ele>
        <time>2017-01-02T21:52:23Z</time>
      </trkpt>
      <trkpt lat="43.62239" lon="3.91707">
        <ele>38</ele>
        <time>2017-01-02T21:54:23Z</time>
      </trkpt>
      <trkpt lat="43.62239" lon="3.91727">
        <ele>38</ele>
        <time>2017-01-02T21:56:23Z</time>
      </trkpt>
      <trkpt lat="43.62266" lon="3.91749">
        <ele>39</ele>
        <time>2017-01-02T21:58:23Z</time>
      </trkpt>
      <trkpt lat="43.62355" lon="3.91835">
        <ele>36</ele>
        <time>2017-01-02T22:00:23Z</time>
      </trkpt>
      <trkpt lat="43.62428" lon="3.91938">
        <ele>36</ele>
        <time>2017-01-02T22:02:23Z</time>
      </trkpt>
      <trkpt lat="43.62453" lon="3.91987">
        <ele>36</ele>
        <time>2017-01-02T22:04:23Z</time>
      </trkpt>
      <trkpt lat="43.62485" lon="3.92025">
        <ele>35</ele>
        <time>2017-01-02T22:06:23Z</time>
      </trkpt>
      <trkpt lat="43.62543" lon="3.92077">
        <ele>32</ele>
        <time>2017-01-02T22:08:23Z</time>
      </trkpt>
      <trkpt lat="43.62552" lon="3.92098">
        <ele>32</ele>
        <time>2017-01-02T22:10:23Z</time>
      </trkpt>
      <trkpt lat="43.62528" lon="3.921">
        <ele>32</ele>
        <time>2017-01-02T22:12:23Z</time>
      </trkpt>
      <trkpt lat="43.62517" lon="3.92127">
        <ele>32</ele>
        <time>2017-01-02T22:14:23Z</time>
      </trkpt>
      <trkpt lat="43.62517" lon="3.92154">
        <ele>32</ele>
        <time>2017-01-02T22:16:23Z</time>
      </trkpt>
      <trkpt lat="43.62508" lon="3.9216">
        <ele>32</ele>
        <time>2017-01-02T22:18:23Z</time>
      </trkpt>
      <trkpt lat="43.62518" lon="3.92179">
        <ele>33</ele>
        <time>2017-01-02T22:20:23Z</time>
      </trkpt>
      <trkpt lat="43.62533" lon="3.92188">
        <ele>33</ele>
        <time>2017-01-02T22:22:23Z</time>
      </trkpt>
      <trkpt lat="43.62551" lon="3.92195">
        <ele>34</ele>
        <time>2017-01-02T22:24:23Z</time>
      </trkpt>
      <trkpt lat="43.62609" lon="3.92339">
        <ele>35</ele>
        <time>2017-01-02T22:26:23Z</time>
      </trkpt>
      <trkpt lat="43.628" lon="3.92856">
        <ele>40</ele>
        <time>2017-01-02T22:28:23Z</time>
      </trkpt>
      <trkpt lat="43.62881" lon="3.93065">
        <ele>43</ele>
        <time>2017-01-02T22:30:23Z</time>
      </trkpt>
      <trkpt lat="43.62917" lon="3.93171">
        <ele>43</ele>
        <time>2017-01-02T22:32:23Z</time>
      </trkpt>
      <trkpt lat="43.62911" lon="3.93206">
        <ele>42</ele>
        <time>2017-01-02T22:34:23Z</time>
      </trkpt>
      <trkpt lat="43.62912" lon="3.93251">
        <ele>41</ele>
        <time>2017-01-02T22:36:23Z</time>
      </trkpt>
      <trkpt lat="43.6291" lon="3.93275">
        <ele>41</ele>
        <time>2017-01-02T22:38:23Z</time>
      </trkpt>
      <trkpt lat="43.62898" lon="3.93308">
        <ele>41</ele>
        <time>2017-01-02T22:40:23Z</time>
      </trkpt>
      <trkpt lat="43.62957" lon="3.93386">
        <ele>42</ele>
        <time>2017-01-02T22:42:23Z</time>
      </trkpt>
      <trkpt lat="43.63014" lon="3.93472">
        <ele>42</ele>
        <time>2017-01-02T22:44:23Z</time>
      </trkpt>
      <trkpt lat="43.63032" lon="3.93472">
        <ele>42</ele>
        <time>2017-01-02T22:46:23Z</time>
      </trkpt>
      <trkpt lat="43.6304" lon="3.93459">
        <ele>42</ele>
        <time>2017-01-02T22:48:23Z</time>
      </trkpt>
      <trkpt lat="43.63062" lon="3.93465">
        <ele>42</ele>
        <time>2017-01-02T22:50:23Z</time>
      </trkpt>
      <trkpt lat="43.63083" lon="3.93492">
        <ele>42</ele>
        <time>2017-01-02T22:52:23Z</time>
      </trkpt>
      <trkpt lat="43.63282" lon="3.9348">
        <ele>51</ele>
        <time>2017-01-02T22:54:23Z</time>
      </trkpt>
      <trkpt lat="43.63298" lon="3.93485">
        <ele>52</ele>
        <time>2017-01-02T22:56:23Z</time>
      </trkpt>
      <trkpt lat="43.63471" lon="3.93374">
        <ele>45</ele>
        <time>2017-01-02T22:58:23Z</time>
      </trkpt>
      <trkpt lat="43.63561" lon="3.93243">
        <ele>39</ele>
        <time>2017-01-02T23:00:23Z</time>
      </trkpt>
      <trkpt lat="43.63607" lon="3.93191">
        <ele>40</ele>
        <time>2017-01-02T23:02:23Z</time>
      </trkpt>
      <trkpt lat="43.63615" lon="3.93196">
        <ele>40</ele>
        <time>2017-01-02T23:04:23Z</time>
      </trkpt>
      <trkpt lat="43.63675" lon="3.9315">
        <ele>40</ele>
        <time>2017-01-02T23:06:23Z</time>
      </trkpt>
      <trkpt lat="43.63788" lon="3.93093">
        <ele>37</ele>
        <time>2017-01-02T23:08:23Z</time>
      </trkpt>
      <trkpt lat="43.63776" lon="3.9305">
        <ele>37</ele>
        <time>2017-01-02T23:10:23Z</time>
      </trkpt>
      <trkpt lat="43.63791" lon="3.93047">
        <ele>37</ele>
        <time>2017-01-02T23:12:23Z</time>
      </trkpt>
      <trkpt lat="43.6381" lon="3.93024">
        <ele>37</ele>
        <time>2017-01-02T23:14:23Z</time>
      </trkpt>
      <trkpt lat="43.63819" lon="3.93027">
        <ele>36</ele>
        <time>2017-01-02T23:16:23Z</time>
      </trkpt>
      <trkpt lat="43.63831" lon="3.93021">
        <ele>36</ele>
        <time>2017-01-02T23:18:23Z</time>
      </trkpt>
      <trkpt lat="43.63837" lon="3.9301">
        <ele>36</ele>
        <time>2017-01-02T23:20:23Z</time>
      </trkpt>
      <trkpt lat="43.63923" lon="3.92967">
        <ele>38</ele>
        <time>2017-01-02T23:22:23Z</time>
      </trkpt>
      <trkpt lat="43.63945" lon="3.92979">
        <ele>39</ele>
        <time>2017-01-02T23:24:23Z</time>
      </trkpt>
      <trkpt lat="43.63953" lon="3.92974">
        <ele>40</ele>
        <time>2017-01-02T23:26:23Z</time>
      </trkpt>
      <trkpt lat="43.63961" lon="3.92899">
        <ele>41</ele>
        <time>2017-01-02T23:28:23Z</time>
      </trkpt>
      <trkpt lat="43.63977" lon="3.92869">
        <ele>42</ele>
        <time>2017-01-02T23:30:23Z</time>
      </trkpt>
      <trkpt lat="43.63989" lon="3.92869">
        <ele>43</ele>
        <time>2017-01-02T23:32:23Z</time>
      </trkpt>
      <trkpt lat="43.64005" lon="3.9298">
        <ele>43</ele>
        <time>2017-01-02T23:34:23Z</time>
      </trkpt>
      <trkpt lat="43.64021" lon="3.93001">
        <ele>45</ele>
        <time>2017-01-02T23:36:23Z</time>
      </trkpt>
      <trkpt lat="43.64249" lon="3.93096">
        <ele>50</ele>
        <time>2017-01-02T23:38:23Z</time>
      </trkpt>
      <trkpt lat="43.64316" lon="3.93109">
        <ele>48</ele>
        <time>2017-01-02T23:40:23Z</time>
      </trkpt>
      <trkpt lat="43.64369" lon="3.93106">
        <ele>47</ele>
        <time>2017-01-02T23:42:23Z</time>
      </trkpt>
      <trkpt lat="43.6441" lon="3.93096">
        <ele>48</ele>
        <time>2017-01-02T23:44:23Z</time>
      </trkpt>
      <trkpt lat="43.64526" lon="3.93046">
        <ele>53</ele>
        <time>2017-01-02T23:46:23Z</time>
      </trkpt>
      <trkpt lat="43.64617" lon="3.92995">
        <ele>55</ele>
        <time>2017-01-02T23:48:23Z</time>
      </trkpt>
      <trkpt lat="43.64652" lon="3.9297">
        <ele>57</ele>
        <time>2017-01-02T23:50:23Z</time>
      </trkpt>
      <trkpt lat="43.64663" lon="3.92969">
        <ele>58</ele>
        <time>2017-01-02T23:52:23Z</time>
      </trkpt>
      <trkpt lat="43.64681" lon="3.93019">
        <ele>58</ele>
        <time>2017-01-02T23:54:23Z</time>
      </trkpt>
      <trkpt lat="43.64721" lon="3.9299">
        <ele>59</ele>
        <time>2017-01-02T23:56:23Z</time>
      </trkpt>
      <trkpt lat="43.64725" lon="3.93006">
        <ele>59</ele>
        <time>2017-01-02T23:58:23Z</time>
      </trkpt>
      <trkpt lat="43.64826" lon="3.92959">
        <ele>61</ele>
        <time>2017-01-03T00:00:23Z</time>
      </trkpt>
      <trkpt lat="43.64851" lon="3.93058">
        <ele>66</ele>
        <time>2017-01-03T00:02:23Z</time>
      </trkpt>
      <trkpt lat="43.64853" lon="3.93077">
        <ele>66</ele>
        <time>2017-01-03T00:04:23Z</time>
      </trkpt>
      <trkpt lat="43.64869" lon="3.9308">
        <ele>67</ele>
        <time>2017-01-03T00:06:23Z</time>
      </trkpt>
      <trkpt lat="43.6492" lon="3.93313">
        <ele>69</ele>
        <time>2017-01-03T00:08:23Z</time>
      </trkpt>
      <trkpt lat="43.64934" lon="3.9333">
        <ele>70</ele>
        <time>2017-01-03T00:10:23Z</time>
      </trkpt>
      <trkpt lat="43.65061" lon="3.93382">
        <ele>70</ele>
        <time>2017-01-03T00:12:23Z</time>
      </trkpt>
      <trkpt lat="43.6507" lon="3.93376">
        <ele>70</ele>
        <time>2017-01-03T00:14:23Z</time>
      </trkpt>
      <trkpt lat="43.65086" lon="3.93382">
        <ele>69</ele>
        <time>2017-01-03T00:16:23Z</time>
      </trkpt>
      <trkpt lat="43.65096" lon="3.93402">
        <ele>69</ele>
        <time>2017-01-03T00:18:23Z</time>
      </trkpt>
      <trkpt lat="43.65294" lon="3.93483">
        <ele>54</ele>
        <time>2017-01-03T00:20:23Z</time>
      </trkpt>
      <trkpt lat="43.65399" lon="3.93523">
        <ele>49</ele>
        <time>2017-01-03T00:22:23Z</time>
      </trkpt>
      <trkpt lat="43.65452" lon="3.93527">
        <ele>49</ele>
        <time>2017-01-03T00:24:23Z</time>
      </trkpt>
      <trkpt lat="43.65577" lon="3.93507">
        <ele>48</ele>
        <time>2017-01-03T00:26:23Z</time>
      </trkpt>
      <trkpt lat="43.65592" lon="3.93516">
        <ele>47</ele>
        <time>2017-01-03T00:28:23Z</time>
      </trkpt>
      <trkpt lat="43.65615" lon="3.93504">
        <ele>47</ele>
        <time>2017-01-03T00:30:23Z</time>
      </trkpt>
      <trkpt lat="43.65653" lon="3.93553">
        <ele>44</ele>
        <time>2017-01-03T00:32:23Z</time>
      </trkpt>
      <trkpt lat="43.65688" lon="3.93562">
        <ele>44</ele>
        <time>2017-01-03T00:34:23Z</time>
      </trkpt>
      <trkpt lat="43.65705" lon="3.93571">
        <ele>45</ele>
        <time>2017-01-03T00:36:23Z</time>
      </trkpt>
      <trkpt lat="43.65805" lon="3.93596">
        <ele>45</ele>
        <time>2017-01-03T00:38:23Z</time>
      </trkpt>
      <trkpt lat="43.65822" lon="3.93595">
        <ele>45</ele>
        <time>2017-01-03T00:40:23Z</time>
      </trkpt>
      <trkpt lat="43.65837" lon="3.93575">
        <ele>44</ele>
        <time>2017-01-03T00:42:23Z</time>
      </trkpt>
      <trkpt lat="43.65845" lon="3.93608">
        <ele>45</ele>
        <time>2017-01-03T00:44:23Z</time>
      </trkpt>
      <trkpt lat="43.65889" lon="3.93644">
        <ele>45</ele>
        <time>2017-01-03T00:46:23Z</time>
      </trkpt>
      <trkpt lat="43.65931" lon="3.93736">
        <ele>46</ele>
        <time>2017-01-03T00:48:23Z</time>
      </trkpt>
      <trkpt lat="43.66046" lon="3.94321">
        <ele>54</ele>
        <time>2017-01-03T00:50:23Z</time>
      </trkpt>
      <trkpt lat="43.66045" lon="3.94548">
        <ele>57</ele>
        <time>2017-01-03T00:52:23Z</time>
      </trkpt>
      <trkpt lat="43.66054" lon="3.94566">
        <ele>57</ele>
        <time>2017-01-03T00:54:23Z</time>
      </trkpt>
      <trkpt lat="43.66041" lon="3.946">
        <ele>57</ele>
        <time>2017-01-03T00:56:23Z</time>
      </trkpt>
      <trkpt lat="43.66043" lon="3.94638">
        <ele>56</ele>
        <time>2017-01-03T00:58:23Z</time>
      </trkpt>
      <trkpt lat="43.66046" lon="3.94688">
        <ele>56</ele>
        <time>2017-01-03T01:00:23Z</time>
      </trkpt>
      <trkpt lat="43.66043" lon="3.94757">
        <ele>55</ele>
        <time>2017-01-03T01:02:23Z</time>
      </trkpt>
      <trkpt lat="43.66029" lon="3.94828">
        <ele>55</ele>
        <time>2017-01-03T01:04:23Z</time>
      </trkpt>
      <trkpt lat="43.65968" lon="3.95024">
        <ele>56</ele>
        <time>2017-01-03T01:06:23Z</time>
      </trkpt>
      <trkpt lat="43.65953" lon="3.95053">
        <ele>56</ele>
        <time>2017-01-03T01:08:23Z</time>
      </trkpt>
      <trkpt lat="43.65921" lon="3.95069">
        <ele>55</ele>
        <time>2017-01-03T01:10:23Z</time>
      </trkpt>
      <trkpt lat="43.65913" lon="3.95118">
        <ele>55</ele>
        <time>2017-01-03T01:12:23Z</time>
      </trkpt>
      <trkpt lat="43.65928" lon="3.95162">
        <ele>54</ele>
        <time>2017-01-03T01:14:23Z</time>
      </trkpt>
      <trkpt lat="43.65929" lon="3.9519">
        <ele>55</ele>
        <time>2017-01-03T01:16:23Z</time>
      </trkpt>
      <trkpt lat="43.65881" lon="3.95487">
        <ele>51</ele>
        <time>2017-01-03T01:18:23Z</time>
      </trkpt>
      <trkpt lat="43.65803" lon="3.95901">
        <ele>49</ele>
        <time>2017-01-03T01:20:23Z</time>
      </trkpt>
      <trkpt lat="43.65812" lon="3.96125">
        <ele>45</ele>
        <time>2017-01-03T01:22:23Z</time>
      </trkpt>
      <trkpt lat="43.6582" lon="3.96129">
        <ele>45</ele>
        <time>2017-01-03T01:24:23Z</time>
      </trkpt>
      <trkpt lat="43.65822" lon="3.96208">
        <ele>44</ele>
        <time>2017-01-03T01:26:23Z</time>
      </trkpt>
      <trkpt lat="43.65818" lon="3.96226">
        <ele>44</ele>
        <time>2017-01-03T01:28:23Z</time>
      </trkpt>
      <trkpt lat="43.65821" lon="3.96316">
        <ele>43</ele>
        <time>2017-01-03T01:30:23Z</time>
      </trkpt>
      <trkpt lat="43.65817" lon="3.96363">
        <ele>43</ele>
        <time>2017-01-03T01:32:23Z</time>
      </trkpt>
      <trkpt lat="43.65814" lon="3.96488">
        <ele>44</ele>
        <time>2017-01-03T01:34:23Z</time>
      </trkpt>
      <trkpt lat="43.65825" lon="3.96514">
        <ele>44</ele>
        <time>2017-01-03T01:36:23Z</time>
      </trkpt>
      <trkpt lat="43.65879" lon="3.96574">
        <ele>45</ele>
        <time>2017-01-03T01:38:23Z</time>
      </trkpt>
      <trkpt lat="43.65886" lon="3.96592">
        <ele>45</ele>
        <time>2017-01-03T01:40:23Z</time>
      </trkpt>
      <trkpt lat="43.65892" lon="3.96659">
        <ele>43</ele>
        <time>2017-01-03T01:42:23Z</time>
      </trkpt>
      <trkpt lat="43.65884" lon="3.96674">
        <ele>42</ele>
        <time>2017-01-03T01:44:23Z</time>
      </trkpt>
      <trkpt lat="43.65888" lon="3.9668">
        <ele>42</ele>
        <time>2017-01-03T01:46:23Z</time>
      </trkpt>
      <trkpt lat="43.65888" lon="3.967">
        <ele>42</ele>
        <time>2017-01-03T01:48:23Z</time>
      </trkpt>
      <trkpt lat="43.65891" lon="3.96708">
        <ele>42</ele>
        <time>2017-01-03T01:50:23Z</time>
      </trkpt>
      <trkpt lat="43.65893" lon="3.96724">
        <ele>41</ele>
        <time>2017-01-03T01:52:23Z</time>
      </trkpt>
      <trkpt lat="43.6595" lon="3.96843">
        <ele>41</ele>
        <time>2017-01-03T01:54:23Z</time>
      </trkpt>
      <trkpt lat="43.66002" lon="3.9701">
        <ele>43</ele>
        <time>2017-01-03T01:56:23Z</time>
      </trkpt>
      <trkpt lat="43.66051" lon="3.97155">
        <ele>43</ele>
        <time>2017-01-03T01:58:23Z</time>
      </trkpt>
      <trkpt lat="43.66155" lon="3.97508">
        <ele>44</ele>
        <time>2017-01-03T02:00:23Z</time>
      </trkpt>
      <trkpt lat="43.66273" lon="3.97909">
        <ele>43</ele>
        <time>2017-01-03T02:02:23Z</time>
      </trkpt>
      <trkpt lat="43.66291" lon="3.97979">
        <ele>43</ele>
        <time>2017-01-03T02:04:23Z</time>
      </trkpt>
      <trkpt lat="43.6633" lon="3.98061">
        <ele>44</ele>
        <time>2017-01-03T02:06:23Z</time>
      </trkpt>
      <trkpt lat="43.66371" lon="3.98197">
        <ele>44</ele>
        <time>2017-01-03T02:08:23Z</time>
      </trkpt>
      <trkpt lat="43.66547" lon="3.98387">
        <ele>41</ele>
        <time>2017-01-03T02:10:23Z</time>
      </trkpt>
      <trkpt lat="43.66552" lon="3.98411">
        <ele>41</ele>
        <time>2017-01-03T02:12:23Z</time>
      </trkpt>
      <trkpt lat="43.66539" lon="3.98461">
        <ele>41</ele>
        <time>2017-01-03T02:14:23Z</time>
      </trkpt>
      <trkpt lat="43.6653" lon="3.98466">
        <ele>41</ele>
        <time>2017-01-03T02:16:23Z</time>
      </trkpt>
      <trkpt lat="43.66524" lon="3.98485">
        <ele>41</ele>
        <time>2017-01-03T02:18:23Z</time>
      </trkpt>
      <trkpt lat="43.6653" lon="3.98533">
        <ele>43</ele>
        <time>2017-01-03T02:20:23Z</time>
      </trkpt>
      <trkpt lat="43.66519" lon="3.98551">
        <ele>43</ele>
        <time>2017-01-03T02:22:23Z</time>
      </trkpt>
      <trkpt lat="43.66524" lon="3.98592">
        <ele>45</ele>
        <time>2017-01-03T02:24:23Z</time>
      </trkpt>
      <trkpt lat="43.66538" lon="3.98663">
        <ele>47</ele>
        <time>2017-01-03T02:26:23Z</time>
      </trkpt>
      <trkpt lat="43.66534" lon="3.98678">
        <ele>47</ele>
        <time>2017-01-03T02:28:23Z</time>
      </trkpt>
      <trkpt lat="43.66514" lon="3.98702">
        <ele>46</ele>
        <time>2017-01-03T02:30:23Z</time>
      </trkpt>
      <trkpt lat="43.66524" lon="3.98741">
        <ele>45</ele>
        <time>2017-01-03T02:32:23Z</time>
      </trkpt>
      <trkpt lat="43.66555" lon="3.98829">
        <ele>42</ele>
        <time>2017-01-03T02:34:23Z</time>
      </trkpt>
      <trkpt lat="43.66557" lon="3.98878">
        <ele>43</ele>
        <time>2017-01-03T02:36:23Z</time>
      </trkpt>
      <trkpt lat="43.6657" lon="3.98914">
        <ele>45</ele>
        <time>2017-01-03T02:38:23Z</time>
      </trkpt>
      <trkpt lat="43.66656" lon="3.98938">
        <ele>44</ele>
        <time>2017-01-03T02:40:23Z</time>
      </trkpt>
      <trkpt lat="43.66676" lon="3.98953">
        <ele>44</ele>
        <time>2017-01-03T02:42:23Z</time>
      </trkpt>
      <trkpt lat="43.66682" lon="3.98999">
        <ele>45</ele>
        <time>2017-01-03T02:44:23Z</time>
      </trkpt>
      <trkpt lat="43.6669" lon="3.99037">
        <ele>46</ele>
        <time>2017-01-03T02:46:23Z</time>
      </trkpt>
      <trkpt lat="43.66702" lon="3.9907">
        <ele>46</ele>
        <time>2017-01-03T02:48:23Z</time>
      </trkpt>
      <trkpt lat="43.66708" lon="3.991">
        <ele>46</ele>
        <time>2017-01-03T02:50:23Z</time>
      </trkpt>
      <trkpt lat="43.66739" lon="3.99146">
        <ele>46</ele>
        <time>2017-01-03T02:52:23Z</time>
      </trkpt>
      <trkpt lat="43.66746" lon="3.99172">
        <ele>46</ele>
        <time>2017-01-03T02:54:23Z</time>
      </trkpt>
      <trkpt lat="43.66761" lon="3.99185">
        <ele>47</ele>
        <time>2017-01-03T02:56:23Z</time>
      </trkpt>
      <trkpt lat="43.66809" lon="3.99187">
        <ele>51</ele>
        <time>2017-01-03T02:58:23Z</time>
      </trkpt>
      <trkpt lat="43.66843" lon="3.99177">
        <ele>52</ele>
        <time>2017-01-03T03:00:23Z</time>
      </trkpt>
      <trkpt lat="43.66998" lon="3.99152">
        <ele>54</ele>
        <time>2017-01-03T03:02:23Z</time>
      </trkpt>
      <trkpt lat="43.67002" lon="3.99161">
        <ele>54</ele>
        <time>2017-01-03T03:04:23Z</time>
      </trkpt>
      <trkpt lat="43.67014" lon="3.99162">
        <ele>54</ele>
        <time>2017-01-03T03:06:23Z</time>
      </trkpt>
      <trkpt lat="43.67019" lon="3.99149">
        <ele>55</ele>
        <time>2017-01-03T03:08:23Z</time>
      </trkpt>
      <trkpt lat="43.67117" lon="3.99135">
        <ele>54</ele>
        <time>2017-01-03T03:10:23Z</time>
      </trkpt>
      <trkpt lat="43.67181" lon="3.99133">
        <ele>53</ele>
        <time>2017-01-03T03:12:23Z</time>
      </trkpt>
      <trkpt lat="43.67228" lon="3.99115">
        <ele>54</ele>
        <time>2017-01-03T03:14:23Z</time>
      </trkpt>
      <trkpt lat="43.67326" lon="3.99047">
        <ele>54</ele>
        <time>2017-01-03T03:16:23Z</time>
      </trkpt>
      <trkpt lat="43.67443" lon="3.99005">
        <ele>53</ele>
        <time>2017-01-03T03:18:23Z</time>
      </trkpt>
      <trkpt lat="43.67568" lon="3.98955">
        <ele>53</ele>
        <time>2017-01-03T03:20:23Z</time>
      </trkpt>
      <trkpt lat="43.67603" lon="3.98935">
        <ele>53</ele>
        <time>2017-01-03T03:22:23Z</time>
      </trkpt>
      <trkpt lat="43.67676" lon="3.98854">
        <ele>60</ele>
        <time>2017-01-03T03:24:23Z</time>
      </trkpt>
      <trkpt lat="43.67682" lon="3.98828">
        <ele>62</ele>
        <time>2017-01-03T03:26:23Z</time>
      </trkpt>
      <trkpt lat="43.6769" lon="3.98818">
        <ele>64</ele>
        <time>2017-01-03T03:28:23Z</time>
      </trkpt>
      <trkpt lat="43.67705" lon="3.98841">
        <ele>64</ele>
        <time>2017-01-03T03:30:23Z</time>
      </trkpt>
      <trkpt lat="43.67797" lon="3.98771">
        <ele>72</ele>
        <time>2017-01-03T03:32:23Z</time>
      </trkpt>
      <trkpt lat="43.67781" lon="3.98724">
        <ele>74</ele>
        <time>2017-01-03T03:34:23Z</time>
      </trkpt>
      <trkpt lat="43.67808" lon="3.98702">
        <ele>73</ele>
        <time>2017-01-03T03:36:23Z</time>
      </trkpt>
      <trkpt lat="43.67809" lon="3.98656">
        <ele>72</ele>
        <time>2017-01-03T03:38:23Z</time>
      </trkpt>
      <trkpt lat="43.67837" lon="3.98627">
        <ele>70</ele>
        <time>2017-01-03T03:40:23Z</time>
      </trkpt>
      <trkpt lat="43.67844" lon="3.986">
        <ele>69</ele>
        <time>2017-01-03T03:42:23Z</time>
      </trkpt>
      <trkpt lat="43.67911" lon="3.98589">
        <ele>68</ele>
        <time>2017-01-03T03:44:23Z</time>
      </trkpt>
      <trkpt lat="43.67988" lon="3.98568">
        <ele>67</ele>
        <time>2017-01-03T03:46:23Z</time>
      </trkpt>
      <trkpt lat="43.68012" lon="3.98618">
        <ele>65</ele>
        <time>2017-01-03T03:48:23Z</time>
      </trkpt>
      <trkpt lat="43.68034" lon="3.98647">
        <ele>64</ele>
        <time>2017-01-03T03:50:23Z</time>
      </trkpt>
      <trkpt lat="43.68071" lon="3.98678">
        <ele>64</ele>
        <time>2017-01-03T03:52:23Z</time>
      </trkpt>
      <trkpt lat="43.68125" lon="3.98703">
        <ele>62</ele>
        <time>2017-01-03T03:54:23Z</time>
      </trkpt>
      <trkpt lat="43.68159" lon="3.98706">
        <ele>60</ele>
        <time>2017-01-03T03:56:23Z</time>
      </trkpt>
      <trkpt lat="43.68205" lon="3.98723">
        <ele>59</ele>
        <time>2017-01-03T03:58:23Z</time>
      </trkpt>
      <trkpt lat="43.68283" lon="3.98769">
        <ele>57</ele>
        <time>2017-01-03T04:00:23Z</time>
      </trkpt>
      <trkpt lat="43.68311" lon="3.98797">
        <ele>56</ele>
        <time>2017-01-03T04:02:23Z</time>
      </trkpt>
      <trkpt lat="43.68326" lon="3.98774">
        <ele>57</ele>
        <time>2017-01-03T04:04:23Z</time>
      </trkpt>
      <trkpt lat="43.68394" lon="3.98815">
        <ele>55</ele>
        <time>2017-01-03T04:06:23Z</time>
      </trkpt>
      <trkpt lat="43.68409" lon="3.98805">
        <ele>55</ele>
        <time>2017-01-03T04:08:23Z</time>
      </trkpt>
      <trkpt lat="43.68421" lon="3.9882">
        <ele>54</ele>
        <time>2017-01-03T04:10:23Z</time>
      </trkpt>
      <trkpt lat="43.68458" lon="3.98844">
        <ele>53</ele>
        <time>2017-01-03T04:12:23Z</time>
      </trkpt>
      <trkpt lat="43.6854" lon="3.98897">
        <ele>53</ele>
        <time>2017-01-03T04:14:23Z</time>
      </trkpt>
      <trkpt lat="43.68548" lon="3.98916">
        <ele>53</ele>
        <time>2017-01-03T04:16:23Z</time>
      </trkpt>
      <trkpt lat="43.68629" lon="3.99001">
        <ele>53</ele>
        <time>2017-01-03T04:18:23Z</time>
      </trkpt>
      <trkpt lat="43.68695" lon="3.99075">
        <ele>53</ele>
        <time>2017-01-03T04:20:23Z</time>
      </trkpt>
      <trkpt lat="43.68708" lon="3.99095">
        <ele>54</ele>
        <time>2017-01-03T04:22:23Z</time>
      </trkpt>
      <trkpt lat="43.68729" lon="3.99114">
        <ele>54</ele>
        <time>2017-01-03T04:24:23Z</time>
      </trkpt>
      <trkpt lat="43.68742" lon="3.99144">
        <ele>55</ele>
        <time>2017-01-03T04:26:23Z</time>
      </trkpt>
      <trkpt lat="43.68754" lon="3.99166">
        <ele>56</ele>
        <time>2017-01-03T04:28:23Z</time>
      </trkpt>
      <trkpt lat="43.68783" lon="3.99204">
        <ele>56</ele>
        <time>2017-01-03T04:30:23Z</time>
      </trkpt>
      <trkpt lat="43.68791" lon="3.99221">
        <ele>56</ele>
        <time>2017-01-03T04:32:23Z</time>
      </trkpt>
      <trkpt lat="43.68819" lon="3.99235">
        <ele>57</ele>
        <time>2017-01-03T04:34:23Z</time>
      </trkpt>
      <trkpt lat="43.6886" lon="3.99265">
        <ele>58</ele>
        <time>2017-01-03T04:36:23Z</time>
      </trkpt>
      <trkpt lat="43.68881" lon="3.99276">
        <ele>59</ele>
        <time>2017-01-03T04:38:23Z</time>
      </trkpt>
      <trkpt lat="43.68916" lon="3.99303">
        <ele>59</ele>
        <time>2017-01-03T04:40:23Z</time>
      </trkpt>
      <trkpt lat="43.6895" lon="3.9936">
        <ele>58</ele>
        <time>2017-01-03T04:42:23Z</time>
      </trkpt>
      <trkpt lat="43.68981" lon="3.99387">
        <ele>59</ele>
        <time>2017-01-03T04:44:23Z</time>
      </trkpt>
      <trkpt lat="43.68994" lon="3.99398">
        <ele>59</ele>
        <time>2017-01-03T04:46:23Z</time>
      </trkpt>
      <trkpt lat="43.69081" lon="3.99469">
        <ele>64</ele>
        <time>2017-01-03T04:48:23Z</time>
      </trkpt>
      <trkpt lat="43.69098" lon="3.99466">
        <ele>64</ele>
        <time>2017-01-03T04:50:23Z</time>
      </trkpt>
      <trkpt lat="43.69115" lon="3.99475">
        <ele>64</ele>
        <time>2017-01-03T04:52:23Z</time>
      </trkpt>
      <trkpt lat="43.69119" lon="3.99486">
        <ele>64</ele>
        <time>2017-01-03T04:54:23Z</time>
      </trkpt>
      <trkpt lat="43.69141" lon="3.99504">
        <ele>65</ele>
        <time>2017-01-03T04:56:23Z</time>
      </trkpt>
      <trkpt lat="43.69143" lon="3.99526">
        <ele>64</ele>
        <time>2017-01-03T04:58:23Z</time>
      </trkpt>
      <trkpt lat="43.6914" lon="3.9955">
        <ele>64</ele>
        <time>2017-01-03T05:00:23Z</time>
      </trkpt>
      <trkpt lat="43.69269" lon="3.99637">
        <ele>58</ele>
        <time>2017-01-03T05:02:23Z</time>
      </trkpt>
      <trkpt lat="43.69283" lon="3.99612">
        <ele>59</ele>
        <time>2017-01-03T05:04:23Z</time>
      </trkpt>
      <trkpt lat="43.69295" lon="3.99621">
        <ele>59</ele>
        <time>2017-01-03T05:06:23Z</time>
      </trkpt>
      <trkpt lat="43.69311" lon="3.99628">
        <ele>59</ele>
        <time>2017-01-03T05:08:23Z</time>
      </trkpt>
      <trkpt lat="43.69334" lon="3.99624">
        <ele>59</ele>
        <time>2017-01-03T05:10:23Z</time>
      </trkpt>
      <trkpt lat="43.69342" lon="3.99612">
        <ele>59</ele>
        <time>2017-01-03T05:12:23Z</time>
      </trkpt>
      <trkpt lat="43.69387" lon="3.99528">
        <ele>60</ele>
        <time>2017-01-03T05:14:23Z</time>
      </trkpt>
      <trkpt lat="43.69392" lon="3.99504">
        <ele>60</ele>
        <time>2017-01-03T05:16:23Z</time>
      </trkpt>
      <trkpt lat="43.69409" lon="3.99501">
        <ele>59</ele>
        <time>2017-01-03T05:18:23Z</time>
      </trkpt>
      <trkpt lat="43.69415" lon="3.99513">
        <ele>59</ele>
        <time>2017-01-03T05:20:23Z</time>
      </trkpt>
      <trkpt lat="43.69424" lon="3.99507">
        <ele>59</ele>
        <time>2017-01-03T05:22:23Z</time>
      </trkpt>
      <trkpt lat="43.69437" lon="3.99481">
        <ele>60</ele>
        <time>2017-01-03T05:24:23Z</time>
      </trkpt>
      <trkpt lat="43.69477" lon="3.99449">
        <ele>62</ele>
        <time>2017-01-03T05:26:23Z</time>
      </trkpt>
      <trkpt lat="43.69496" lon="3.99435">
        <ele>62</ele>
        <time>2017-01-03T05:28:23Z</time>
      </trkpt>
      <trkpt lat="43.69498" lon="3.99386">
        <ele>63</ele>
        <time>2017-01-03T05:30:23Z</time>
      </trkpt>
      <trkpt lat="43.69522" lon="3.9935">
        <ele>63</ele>
        <time>2017-01-03T05:32:23Z</time>
      </trkpt>
      <trkpt lat="43.69543" lon="3.99335">
        <ele>62</ele>
        <time>2017-01-03T05:34:23Z</time>
      </trkpt>
      <trkpt lat="43.69647" lon="3.99183">
        <ele>65</ele>
        <time>2017-01-03T05:36:23Z</time>
      </trkpt>
      <trkpt lat="43.69688" lon="3.9911">
        <ele>66</ele>
        <time>2017-01-03T05:38:23Z</time>
      </trkpt>
      <trkpt lat="43.69763" lon="3.98928">
        <ele>71</ele>
        <time>2017-01-03T05:40:23Z</time>
      </trkpt>
      <trkpt lat="43.69839" lon="3.98775">
        <ele>72</ele>
        <time>2017-01-03T05:42:23Z</time>
      </trkpt>
      <trkpt lat="43.69923" lon="3.98654">
        <ele>71</ele>
        <time>2017-01-03T05:44:23Z</time>
      </trkpt>
      <trkpt lat="43.69939" lon="3.98658">
        <ele>70</ele>
        <time>2017-01-03T05:46:23Z</time>
      </trkpt>
      <trkpt lat="43.69937" lon="3.9862">
        <ele>71</ele>
        <time>2017-01-03T05:48:23Z</time>
      </trkpt>
      <trkpt lat="43.69939" lon="3.98553">
        <ele>72</ele>
        <time>2017-01-03T05:50:23Z</time>
      </trkpt>
      <trkpt lat="43.69947" lon="3.98486">
        <ele>73</ele>
        <time>2017-01-03T05:52:23Z</time>
      </trkpt>
      <trkpt lat="43.69943" lon="3.98449">
        <ele>73</ele>
        <time>2017-01-03T05:54:23Z</time>
      </trkpt>
      <trkpt lat="43.69927" lon="3.98359">
        <ele>75</ele>
        <time>2017-01-03T05:56:23Z</time>
      </trkpt>
      <trkpt lat="43.6993" lon="3.98275">
        <ele>73</ele>
        <time>2017-01-03T05:58:23Z</time>
      </trkpt>
      <trkpt lat="43.69922" lon="3.98254">
        <ele>73</ele>
        <time>2017-01-03T06:00:23Z</time>
      </trkpt>
      <trkpt lat="43.69891" lon="3.98242">
        <ele>73</ele>
        <time>2017-01-03T06:02:23Z</time>
      </trkpt>
      <trkpt lat="43.69831" lon="3.98259">
        <ele>74</ele>
        <time>2017-01-03T06:04:23Z</time>
      </trkpt>
      <trkpt lat="43.69651" lon="3.98291">
        <ele>77</ele>
        <time>2017-01-03T06:06:23Z</time>
      </trkpt>
      <trkpt lat="43.696" lon="3.98284">
        <ele>80</ele>
        <time>2017-01-03T06:08:23Z</time>
      </trkpt>
      <trkpt lat="43.69605" lon="3.98266">
        <ele>80</ele>
        <time>2017-01-03T06:10:23Z</time>
      </trkpt>
      <trkpt lat="43.69593" lon="3.98235">
        <ele>82</ele>
        <time>2017-01-03T06:12:23Z</time>
      </trkpt>
      <trkpt lat="43.69558" lon="3.98169">
        <ele>84</ele>
        <time>2017-01-03T06:14:23Z</time>
      </trkpt>
      <trkpt lat="43.69517" lon="3.98127">
        <ele>82</ele>
        <time>2017-01-03T06:16:23Z</time>
      </trkpt>
      <trkpt lat="43.69508" lon="3.98107">
        <ele>81</ele>
        <time>2017-01-03T06:18:23Z</time>
      </trkpt>
      <trkpt lat="43.69532" lon="3.97715">
        <ele>73</ele>
        <time>2017-01-03T06:20:23Z</time>
      </trkpt>
      <trkpt lat="43.69573" lon="3.9745">
        <ele>74</ele>
        <time>2017-01-03T06:22:23Z</time>
      </trkpt>
      <trkpt lat="43.69559" lon="3.97439">
        <ele>73</ele>
        <time>2017-01-03T06:24:23Z</time>
      </trkpt>
      <trkpt lat="43.69518" lon="3.97469">
        <ele>69</ele>
        <time>2017-01-03T06:26:23Z</time>
      </trkpt>
      <trkpt lat="43.69541" lon="3.97358">
        <ele>73</ele>
        <time>2017-01-03T06:28:23Z</time>
      </trkpt>
      <trkpt lat="43.69538" lon="3.97239">
        <ele>75</ele>
        <time>2017-01-03T06:30:23Z</time>
      </trkpt>
      <trkpt lat="43.69534" lon="3.97109">
        <ele>73</ele>
        <time>2017-01-03T06:32:23Z</time>
      </trkpt>
      <trkpt lat="43.69512" lon="3.97112">
        <ele>72</ele>
        <time>2017-01-03T06:34:23Z</time>
      </trkpt>
      <trkpt lat="43.69482" lon="3.97004">
        <ele>70</ele>
        <time>2017-01-03T06:36:23Z</time>
      </trkpt>
      <trkpt lat="43.69462" lon="3.96977">
        <ele>69</ele>
        <time>2017-01-03T06:38:23Z</time>
      </trkpt>
      <trkpt lat="43.69453" lon="3.96928">
        <ele>68</ele>
        <time>2017-01-03T06:40:23Z</time>
      </trkpt>
      <trkpt lat="43.69387" lon="3.96727">
        <ele>66</ele>
        <time>2017-01-03T06:42:23Z</time>
      </trkpt>
      <trkpt lat="43.69378" lon="3.96666">
        <ele>66</ele>
        <time>2017-01-03T06:44:23Z</time>
      </trkpt>
      <trkpt lat="43.69392" lon="3.96477">
        <ele>66</ele>
        <time>2017-01-03T06:46:23Z</time>
      </trkpt>
      <trkpt lat="43.69442" lon="3.96357">
        <ele>67</ele>
        <time>2017-01-03T06:48:23Z</time>
      </trkpt>
      <trkpt lat="43.69454" lon="3.96323">
        <ele>68</ele>
        <time>2017-01-03T06:50:23Z</time>
      </trkpt>
      <trkpt lat="43.69487" lon="3.9609">
        <ele>64</ele>
        <time>2017-01-03T06:52:23Z</time>
      </trkpt>
      <trkpt lat="43.69532" lon="3.96005">
        <ele>65</ele>
        <time>2017-01-03T06:54:23Z</time>
      </trkpt>
      <trkpt lat="43.69588" lon="3.9592">
        <ele>67</ele>
        <time>2017-01-03T06:56:23Z</time>
      </trkpt>
      <trkpt lat="43.69602" lon="3.95867">
        <ele>66</ele>
        <time>2017-01-03T06:58:23Z</time>
      </trkpt>
      <trkpt lat="43.6961" lon="3.95826">
        <ele>65</ele>
        <time>2017-01-03T07:00:23Z</time>
      </trkpt>
      <trkpt lat="43.69603" lon="3.95792">
        <ele>66</ele>
        <time>2017-01-03T07:02:23Z</time>
      </trkpt>
      <trkpt lat="43.69593" lon="3.95669">
        <ele>71</ele>
        <time>2017-01-03T07:04:23Z</time>
      </trkpt>
      <trkpt lat="43.69586" lon="3.95463">
        <ele>76</ele>
        <time>2017-01-03T07:06:23Z</time>
      </trkpt>
      <trkpt lat="43.69591" lon="3.95399">
        <ele>77</ele>
        <time>2017-01-03T07:08:23Z</time>
      </trkpt>
      <trkpt lat="43.69569" lon="3.95056">
        <ele>83</ele>
        <time>2017-01-03T07:10:23Z</time>
      </trkpt>
      <trkpt lat="43.69549" lon="3.94868">
        <ele>87</ele>
        <time>2017-01-03T07:12:23Z</time>
      </trkpt>
      <trkpt lat="43.6952" lon="3.9475">
        <ele>88</ele>
        <time>2017-01-03T07:14:23Z</time>
      </trkpt>
      <trkpt lat="43.69496" lon="3.94686">
        <ele>89</ele>
        <time>2017-01-03T07:16:23Z</time>
      </trkpt>
      <trkpt lat="43.69484" lon="3.94444">
        <ele>88</ele>
        <time>2017-01-03T07:18:23Z</time>
      </trkpt>
      <trkpt lat="43.69461" lon="3.94349">
        <ele>88</ele>
        <time>2017-01-03T07:20:23Z</time>
      </trkpt>
      <trkpt lat="43.6952" lon="3.94345">
        <ele>88</ele>
        <time>2017-01-03T07:22:23Z</time>
      </trkpt>
      <trkpt lat="43.69573" lon="3.94331">
        <ele>84</ele>
        <time>2017-01-03T07:24:23Z</time>
      </trkpt>
      <trkpt lat="43.69662" lon="3.94341">
        <ele>80</ele>
        <time>2017-01-03T07:26:23Z</time>
      </trkpt>
      <trkpt lat="43.69702" lon="3.94344">
        <ele>81</ele>
        <time>2017-01-03T07:28:23Z</time>
      </trkpt>
      <trkpt lat="43.69701" lon="3.94281">
        <ele>84</ele>
        <time>2017-01-03T07:30:23Z</time>
      </trkpt>
      <trkpt lat="43.69669" lon="3.94279">
        <ele>82</ele>
        <time>2017-01-03T07:32:23Z</time>
      </trkpt>
      <trkpt lat="43.69472" lon="3.94062">
        <ele>98</ele>
        <time>2017-01-03T07:34:23Z</time>
      </trkpt>
      <trkpt lat="43.69411" lon="3.9404">
        <ele>102</ele>
        <time>2017-01-03T07:36:23Z</time>
      </trkpt>
      <trkpt lat="43.69373" lon="3.94079">
        <ele>101</ele>
        <time>2017-01-03T07:38:23Z</time>
      </trkpt>
      <trkpt lat="43.6934" lon="3.94089">
        <ele>102</ele>
        <time>2017-01-03T07:40:23Z</time>
      </trkpt>
      <trkpt lat="43.69346" lon="3.93898">
        <ele>104</ele>
        <time>2017-01-03T07:42:23Z</time>
      </trkpt>
      <trkpt lat="43.69339" lon="3.93789">
        <ele>103</ele>
        <time>2017-01-03T07:44:23Z</time>
      </trkpt>
      <trkpt lat="43.69299" lon="3.93606">
        <ele>100</ele>
        <time>2017-01-03T07:46:23Z</time>
      </trkpt>
      <trkpt lat="43.69295" lon="3.93565">
        <ele>101</ele>
        <time>2017-01-03T07:48:23Z</time>
      </trkpt>
      <trkpt lat="43.69313" lon="3.93557">
        <ele>102</ele>
        <time>2017-01-03T07:50:23Z</time>
      </trkpt>
      <trkpt lat="43.69467" lon="3.93398">
        <ele>101</ele>
        <time>2017-01-03T07:52:23Z</time>
      </trkpt>
      <trkpt lat="43.69489" lon="3.93393">
        <ele>100</ele>
        <time>2017-01-03T07:54:23Z</time>
      </trkpt>
      <trkpt lat="43.69528" lon="3.93523">
        <ele>96</ele>
        <time>2017-01-03T07:56:23Z</time>
      </trkpt>
      <trkpt lat="43.6955" lon="3.93557">
        <ele>95</ele>
        <time>2017-01-03T07:58:23Z</time>
      </trkpt>
      <trkpt lat="43.69594" lon="3.93594">
        <ele>95</ele>
        <time>2017-01-03T08:00:23Z</time>
      </trkpt>
      <trkpt lat="43.69617" lon="3.93647">
        <ele>95</ele>
        <time>2017-01-03T08:02:23Z</time>
      </trkpt>
      <trkpt lat="43.69731" lon="3.93735">
        <ele>93</ele>
        <time>2017-01-03T08:04:23Z</time>
      </trkpt>
      <trkpt lat="43.69781" lon="3.93753">
        <ele>93</ele>
        <time>2017-01-03T08:06:23Z</time>
      </trkpt>
      <trkpt lat="43.698" lon="3.93772">
        <ele>94</ele>
        <time>2017-01-03T08:08:23Z</time>
      </trkpt>
      <trkpt lat="43.69804" lon="3.93725">
        <ele>96</ele>
        <time>2017-01-03T08:10:23Z</time>
      </trkpt>
      <trkpt lat="43.69904" lon="3.93607">
        <ele>107</ele>
        <time>2017-01-03T08:12:23Z</time>
      </trkpt>
      <trkpt lat="43.69968" lon="3.93542">
        <ele>114</ele>
        <time>2017-01-03T08:14:23Z</time>
      </trkpt>
      <trkpt lat="43.69979" lon="3.93523">
        <ele>114</ele>
        <time>2017-01-03T08:16:23Z</time>
      </trkpt>
      <trkpt lat="43.69982" lon="3.93447">
        <ele>111</ele>
        <time>2017-01-03T08:18:23Z</time>
      </trkpt>
      <trkpt lat="43.69958" lon="3.93413">
        <ele>112</ele>
        <time>2017-01-03T08:20:23Z</time>
      </trkpt>
      <trkpt lat="43.69901" lon="3.93349">
        <ele>112</ele>
        <time>2017-01-03T08:22:23Z</time>
      </trkpt>
      <trkpt lat="43.6988" lon="3.93306">
        <ele>112</ele>
        <time>2017-01-03T08:24:23Z</time>
      </trkpt>
      <trkpt lat="43.69888" lon="3.93263">
        <ele>109</ele>
        <time>2017-01-03T08:26:23Z</time>
      </trkpt>
      <trkpt lat="43.69876" lon="3.93216">
        <ele>109</ele>
        <time>2017-01-03T08:28:23Z</time>
      </trkpt>
      <trkpt lat="43.69846" lon="3.93181">
        <ele>111</ele>
        <time>2017-01-03T08:30:23Z</time>
      </trkpt>
      <trkpt lat="43.69802" lon="3.93069">
        <ele>109</ele>
        <time>2017-01-03T08:32:23Z</time>
      </trkpt>
      <trkpt lat="43.6979" lon="3.93046">
        <ele>108</ele>
        <time>2017-01-03T08:34:23Z</time>
      </trkpt>
      <trkpt lat="43.69787" lon="3.93021">
        <ele>107</ele>
        <time>2017-01-03T08:36:23Z</time>
      </trkpt>
      <trkpt lat="43.69795" lon="3.9301">
        <ele>106</ele>
        <time>2017-01-03T08:38:23Z</time>
      </trkpt>
      <trkpt lat="43.69805" lon="3.9301">
        <ele>106</ele>
        <time>2017-01-03T08:40:23Z</time>
      </trkpt>
      <trkpt lat="43.6981" lon="3.92959">
        <ele>105</ele>
        <time>2017-01-03T08:42:23Z</time>
      </trkpt>
      <trkpt lat="43.69842" lon="3.92945">
        <ele>105</ele>
        <time>2017-01-03T08:44:23Z</time>
      </trkpt>
      <trkpt lat="43.69864" lon="3.92928">
        <ele>106</ele>
        <time>2017-01-03T08:46:23Z</time>
      </trkpt>
      <trkpt lat="43.69912" lon="3.92938">
        <ele>108</ele>
        <time>2017-01-03T08:48:23Z</time>
      </trkpt>
      <trkpt lat="43.69918" lon="3.92922">
        <ele>110</ele>
        <time>2017-01-03T08:50:23Z</time>
      </trkpt>
      <trkpt lat="43.69904" lon="3.92883">
        <ele>114</ele>
        <time>2017-01-03T08:52:23Z</time>
      </trkpt>
      <trkpt lat="43.69889" lon="3.92859">
        <ele>115</ele>
        <time>2017-01-03T08:54:23Z</time>
      </trkpt>
      <trkpt lat="43.69875" lon="3.92802">
        <ele>120</ele>
        <time>2017-01-03T08:56:23Z</time>
      </trkpt>
      <trkpt lat="43.69862" lon="3.92753">
        <ele>122</ele>
        <time>2017-01-03T08:58:23Z</time>
      </trkpt>
      <trkpt lat="43.69792" lon="3.92663">
        <ele>115</ele>
        <time>2017-01-03T09:00:23Z</time>
      </trkpt>
      <trkpt lat="43.69681" lon="3.92523">
        <ele>108</ele>
        <time>2017-01-03T09:02:23Z</time>
      </trkpt>
      <trkpt lat="43.69635" lon="3.92418">
        <ele>105</ele>
        <time>2017-01-03T09:04:23Z</time>
      </trkpt>
      <trkpt lat="43.69614" lon="3.92382">
        <ele>105</ele>
        <time>2017-01-03T09:06:23Z</time>
      </trkpt>
      <trkpt lat="43.69537" lon="3.92291">
        <ele>106</ele>
        <time>2017-01-03T09:08:23Z</time>
      </trkpt>
      <trkpt lat="43.6945" lon="3.92194">
        <ele>104</ele>
        <time>2017-01-03T09:10:23Z</time>
      </trkpt>
      <trkpt lat="43.69416" lon="3.92144">
        <ele>103</ele>
        <time>2017-01-03T09:12:23Z</time>
      </trkpt>
      <trkpt lat="43.69377" lon="3.92068">
        <ele>102</ele>
        <time>2017-01-03T09:14:23Z</time>
      </trkpt>
      <trkpt lat="43.69322" lon="3.91973">
        <ele>101</ele>
        <time>2017-01-03T09:16:23Z</time>
      </trkpt>
      <trkpt lat="43.69321" lon="3.91949">
        <ele>101</ele>
        <time>2017-01-03T09:18:23Z</time>
      </trkpt>
      <trkpt lat="43.69341" lon="3.91903">
        <ele>102</ele>
        <time>2017-01-03T09:20:23Z</time>
      </trkpt>
      <trkpt lat="43.69345" lon="3.91812">
        <ele>102</ele>
        <time>2017-01-03T09:22:23Z</time>
      </trkpt>
      <trkpt lat="43.69326" lon="3.91731">
        <ele>100</ele>
        <time>2017-01-03T09:24:23Z</time>
      </trkpt>
      <trkpt lat="43.69326" lon="3.91639">
        <ele>96</ele>
        <time>2017-01-03T09:26:23Z</time>
      </trkpt>
      <trkpt lat="43.69321" lon="3.91571">
        <ele>92</ele>
        <time>2017-01-03T09:28:23Z</time>
      </trkpt>
      <trkpt lat="43.69305" lon="3.91467">
        <ele>86</ele>
        <time>2017-01-03T09:30:23Z</time>
      </trkpt>
      <trkpt lat="43.69289" lon="3.91427">
        <ele>84</ele>
        <time>2017-01-03T09:32:23Z</time>
      </trkpt>
      <trkpt lat="43.6929" lon="3.91502">
        <ele>86</ele>
        <time>2017-01-03T09:34:23Z</time>
      </trkpt>
      <trkpt lat="43.69285" lon="3.91567">
        <ele>89</ele>
        <time>2017-01-03T09:36:23Z</time>
      </trkpt>
      <trkpt lat="43.69268" lon="3.91631">
        <ele>92</ele>
        <time>2017-01-03T09:38:23Z</time>
      </trkpt>
      <trkpt lat="43.69247" lon="3.91662">
        <ele>94</ele>
        <time>2017-01-03T09:40:23Z</time>
      </trkpt>
      <trkpt lat="43.69239" lon="3.91607">
        <ele>90</ele>
        <time>2017-01-03T09:42:23Z</time>
      </trkpt>
      <trkpt lat="43.69223" lon="3.91526">
        <ele>87</ele>
        <time>2017-01-03T09:44:23Z</time>
      </trkpt>
      <trkpt lat="43.69185" lon="3.91375">
        <ele>78</ele>
        <time>2017-01-03T09:46:23Z</time>
      </trkpt>
      <trkpt lat="43.69175" lon="3.91251">
        <ele>74</ele>
        <time>2017-01-03T09:48:23Z</time>
      </trkpt>
      <trkpt lat="43.69155" lon="3.91129">
        <ele>72</ele>
        <time>2017-01-03T09:50:23Z</time>
      </trkpt>
      <trkpt lat="43.69128" lon="3.9111">
        <ele>72</ele>
        <time>2017-01-03T09:52:23Z</time>
      </trkpt>
      <trkpt lat="43.69105" lon="3.9111">
        <ele>71</ele>
        <time>2017-01-03T09:54:23Z</time>
      </trkpt>
      <trkpt lat="43.6902" lon="3.9114">
        <ele>67</ele>
        <time>2017-01-03T09:56:23Z</time>
      </trkpt>
      <trkpt lat="43.6895" lon="3.91129">
        <ele>67</ele>
        <time>2017-01-03T09:58:23Z</time>
      </trkpt>
      <trkpt lat="43.68931" lon="3.91102">
        <ele>68</ele>
        <time>2017-01-03T10:00:23Z</time>
      </trkpt>
      <trkpt lat="43.68938" lon="3.9106">
        <ele>69</ele>
        <time>2017-01-03T10:02:23Z</time>
      </trkpt>
      <trkpt lat="43.68953" lon="3.90975">
        <ele>73</ele>
        <time>2017-01-03T10:04:23Z</time>
      </trkpt>
      <trkpt lat="43.68974" lon="3.90908">
        <ele>77</ele>
        <time>2017-01-03T10:06:23Z</time>
      </trkpt>
      <trkpt lat="43.68944" lon="3.90784">
        <ele>82</ele>
        <time>2017-01-03T10:08:23Z</time>
      </trkpt>
      <trkpt lat="43.6892" lon="3.90677">
        <ele>82</ele>
        <time>2017-01-03T10:10:23Z</time>
      </trkpt>
      <trkpt lat="43.68908" lon="3.90604">
        <ele>85</ele>
        <time>2017-01-03T10:12:23Z</time>
      </trkpt>
      <trkpt lat="43.68891" lon="3.90549">
        <ele>88</ele>
        <time>2017-01-03T10:14:23Z</time>
      </trkpt>
      <trkpt lat="43.6885" lon="3.90554">
        <ele>89</ele>
        <time>2017-01-03T10:16:23Z</time>
      </trkpt>
      <trkpt lat="43.6884" lon="3.90543">
        <ele>89</ele>
        <time>2017-01-03T10:18:23Z</time>
      </trkpt>
      <trkpt lat="43.68841" lon="3.90497">
        <ele>89</ele>
        <time>2017-01-03T10:20:23Z</time>
      </trkpt>
      <trkpt lat="43.6885" lon="3.90461">
        <ele>90</ele>
        <time>2017-01-03T10:22:23Z</time>
      </trkpt>
      <trkpt lat="43.68859" lon="3.90414">
        <ele>91</ele>
        <time>2017-01-03T10:24:23Z</time>
      </trkpt>
      <trkpt lat="43.6886" lon="3.90375">
        <ele>90</ele>
        <time>2017-01-03T10:26:23Z</time>
      </trkpt>
      <trkpt lat="43.68837" lon="3.90304">
        <ele>86</ele>
        <time>2017-01-03T10:28:23Z</time>
      </trkpt>
      <trkpt lat="43.68804" lon="3.90226">
        <ele>84</ele>
        <time>2017-01-03T10:30:23Z</time>
      </trkpt>
      <trkpt lat="43.688" lon="3.90186">
        <ele>84</ele>
        <time>2017-01-03T10:32:23Z</time>
      </trkpt>
      <trkpt lat="43.68793" lon="3.9013">
        <ele>83</ele>
        <time>2017-01-03T10:34:23Z</time>
      </trkpt>
      <trkpt lat="43.68756" lon="3.89959">
        <ele>75</ele>
        <time>2017-01-03T10:36:23Z</time>
      </trkpt>
      <trkpt lat="43.68743" lon="3.89921">
        <ele>75</ele>
        <time>2017-01-03T10:38:23Z</time>
      </trkpt>
      <trkpt lat="43.68821" lon="3.89854">
        <ele>78</ele>
        <time>2017-01-03T10:40:23Z</time>
      </trkpt>
      <trkpt lat="43.68821" lon="3.89794">
        <ele>78</ele>
        <time>2017-01-03T10:42:23Z</time>
      </trkpt>
      <trkpt lat="43.68791" lon="3.8973">
        <ele>81</ele>
        <time>2017-01-03T10:44:23Z</time>
      </trkpt>
      <trkpt lat="43.68711" lon="3.89638">
        <ele>79</ele>
        <time>2017-01-03T10:46:23Z</time>
      </trkpt>
      <trkpt lat="43.68689" lon="3.89606">
        <ele>78</ele>
        <time>2017-01-03T10:48:23Z</time>
      </trkpt>
      <trkpt lat="43.68661" lon="3.89536">
        <ele>78</ele>
        <time>2017-01-03T10:50:23Z</time>
      </trkpt>
      <trkpt lat="43.68641" lon="3.89478">
        <ele>78</ele>
        <time>2017-01-03T10:52:23Z</time>
      </trkpt>
      <trkpt lat="43.68642" lon="3.89448">
        <ele>78</ele>
        <time>2017-01-03T10:54:23Z</time>
      </trkpt>
      <trkpt lat="43.68677" lon="3.89411">
        <ele>78</ele>
        <time>2017-01-03T10:56:23Z</time>
      </trkpt>
      <trkpt lat="43.68686" lon="3.89392">
        <ele>78</ele>
        <time>2017-01-03T10:58:23Z</time>
      </trkpt>
      <trkpt lat="43.68733" lon="3.89349">
        <ele>78</ele>
        <time>2017-01-03T11:00:23Z</time>
      </trkpt>
      <trkpt lat="43.6877" lon="3.89297">
        <ele>78</ele>
        <time>2017-01-03T11:02:23Z</time>
      </trkpt>
      <trkpt lat="43.68782" lon="3.89277">
        <ele>79</ele>
        <time>2017-01-03T11:04:23Z</time>
      </trkpt>
      <trkpt lat="43.68808" lon="3.89249">
        <ele>80</ele>
        <time>2017-01-03T11:06:23Z</time>
      </trkpt>
      <trkpt lat="43.6883" lon="3.89215">
        <ele>81</ele>
        <time>2017-01-03T11:08:23Z</time>
      </trkpt>
      <trkpt lat="43.68838" lon="3.89206">
        <ele>82</ele>
        <time>2017-01-03T11:10:23Z</time>
      </trkpt>
      <trkpt lat="43.68857" lon="3.89201">
        <ele>82</ele>
        <time>2017-01-03T11:12:23Z</time>
      </trkpt>
      <trkpt lat="43.68885" lon="3.89182">
        <ele>83</ele>
        <time>2017-01-03T11:14:23Z</time>
      </trkpt>
      <trkpt lat="43.6893" lon="3.8914">
        <ele>86</ele>
        <time>2017-01-03T11:16:23Z</time>
      </trkpt>
      <trkpt lat="43.68966" lon="3.89131">
        <ele>88</ele>
        <time>2017-01-03T11:18:23Z</time>
      </trkpt>
      <trkpt lat="43.68977" lon="3.89145">
        <ele>89</ele>
        <time>2017-01-03T11:20:23Z</time>
      </trkpt>
      <trkpt lat="43.68991" lon="3.89171">
        <ele>90</ele>
        <time>2017-01-03T11:22:23Z</time>
      </trkpt>
      <trkpt lat="43.69019" lon="3.89203">
        <ele>91</ele>
        <time>2017-01-03T11:24:23Z</time>
      </trkpt>
      <trkpt lat="43.69048" lon="3.89241">
        <ele>93</ele>
        <time>2017-01-03T11:26:23Z</time>
      </trkpt>
      <trkpt lat="43.69053" lon="3.89244">
        <ele>93</ele>
        <time>2017-01-03T11:28:23Z</time>
      </trkpt>
      <trkpt lat="43.69073" lon="3.89229">
        <ele>95</ele>
        <time>2017-01-03T11:30:23Z</time>
      </trkpt>
      <trkpt lat="43.6912" lon="3.89255">
        <ele>99</ele>
        <time>2017-01-03T11:32:23Z</time>
      </trkpt>
      <trkpt lat="43.69164" lon="3.89326">
        <ele>101</ele>
        <time>2017-01-03T11:34:23Z</time>
      </trkpt>
      <trkpt lat="43.6918" lon="3.8934">
        <ele>102</ele>
        <time>2017-01-03T11:36:23Z</time>
      </trkpt>
      <trkpt lat="43.69194" lon="3.8934">
        <ele>103</ele>
        <time>2017-01-03T11:38:23Z</time>
      </trkpt>
      <trkpt lat="43.69222" lon="3.8935">
        <ele>105</ele>
        <time>2017-01-03T11:40:23Z</time>
      </trkpt>
      <trkpt lat="43.6925" lon="3.89368">
        <ele>106</ele>
        <time>2017-01-03T11:42:23Z</time>
      </trkpt>
      <trkpt lat="43.6927" lon="3.89376">
        <ele>106</ele>
        <time>2017-01-03T11:44:23Z</time>
      </trkpt>
      <trkpt lat="43.69294" lon="3.89378">
        <ele>107</ele>
        <time>2017-01-03T11:46:23Z</time>
      </trkpt>
      <trkpt lat="43.6931" lon="3.8937">
        <ele>108</ele>
        <time>2017-01-03T11:48:23Z</time>
      </trkpt>
      <trkpt lat="43.69333" lon="3.89342">
        <ele>111</ele>
        <time>2017-01-03T11:50:23Z</time>
      </trkpt>
      <trkpt lat="43.69344" lon="3.89338">
        <ele>112</ele>
        <time>2017-01-03T11:52:23Z</time>
      </trkpt>
      <trkpt lat="43.69388" lon="3.89338">
        <ele>112</ele>
        <time>2017-01-03T11:54:23Z</time>
      </trkpt>
      <trkpt lat="43.69482" lon="3.89288">
        <ele>116</ele>
        <time>2017-01-03T11:56:23Z</time>
      </trkpt>
      <trkpt lat="43.695" lon="3.89274">
        <ele>116</ele>
        <time>2017-01-03T11:58:23Z</time>
      </trkpt>
      <trkpt lat="43.69512" lon="3.89251">
        <ele>118</ele>
        <time>2017-01-03T12:00:23Z</time>
      </trkpt>
      <trkpt lat="43.69523" lon="3.89204">
        <ele>119</ele>
        <time>2017-01-03T12:02:23Z</time>
      </trkpt>
      <trkpt lat="43.69697" lon="3.89288">
        <ele>134</ele>
        <time>2017-01-03T12:04:23Z</time>
      </trkpt>
      <trkpt lat="43.69763" lon="3.89325">
        <ele>138</ele>
        <time>2017-01-03T12:06:23Z</time>
      </trkpt>
      <trkpt lat="43.69786" lon="3.89349">
        <ele>137</ele>
        <time>2017-01-03T12:08:23Z</time>
      </trkpt>
      <trkpt lat="43.69806" lon="3.89366">
        <ele>136</ele>
        <time>2017-01-03T12:10:23Z</time>
      </trkpt>
      <trkpt lat="43.69829" lon="3.89376">
        <ele>137</ele>
        <time>2017-01-03T12:12:23Z</time>
      </trkpt>
      <trkpt lat="43.69855" lon="3.89382">
        <ele>136</ele>
        <time>2017-01-03T12:14:23Z</time>
      </trkpt>
      <trkpt lat="43.69883" lon="3.89391">
        <ele>135</ele>
        <time>2017-01-03T12:16:23Z</time>
      </trkpt>
      <trkpt lat="43.69898" lon="3.89403">
        <ele>134</ele>
        <time>2017-01-03T12:18:23Z</time>
      </trkpt>
      <trkpt lat="43.69916" lon="3.89423">
        <ele>133</ele>
        <time>2017-01-03T12:20:23Z</time>
      </trkpt>
      <trkpt lat="43.70093" lon="3.89542">
        <ele>125</ele>
        <time>2017-01-03T12:22:23Z</time>
      </trkpt>
      <trkpt lat="43.7014" lon="3.89588">
        <ele>127</ele>
        <time>2017-01-03T12:24:23Z</time>
      </trkpt>
      <trkpt lat="43.70188" lon="3.89662">
        <ele>129</ele>
        <time>2017-01-03T12:26:23Z</time>
      </trkpt>
      <trkpt lat="43.7022" lon="3.89642">
        <ele>127</ele>
        <time>2017-01-03T12:28:23Z</time>
      </trkpt>
      <trkpt lat="43.70266" lon="3.89663">
        <ele>125</ele>
        <time>2017-01-03T12:30:23Z</time>
      </trkpt>
      <trkpt lat="43.70302" lon="3.89672">
        <ele>125</ele>
        <time>2017-01-03T12:32:23Z</time>
      </trkpt>
      <trkpt lat="43.7051" lon="3.89744">
        <ele>123</ele>
        <time>2017-01-03T12:34:23Z</time>
      </trkpt>
      <trkpt lat="43.70519" lon="3.89742">
        <ele>123</ele>
        <time>2017-01-03T12:36:23Z</time>
      </trkpt>
      <trkpt lat="43.70523" lon="3.89765">
        <ele>123</ele>
        <time>2017-01-03T12:38:23Z</time>
      </trkpt>
      <trkpt lat="43.70536" lon="3.89791">
        <ele>122</ele>
        <time>2017-01-03T12:40:23Z</time>
      </trkpt>
      <trkpt lat="43.70589" lon="3.8983">
        <ele>117</ele>
        <time>2017-01-03T12:42:23Z</time>
      </trkpt>
      <trkpt lat="43.70664" lon="3.8986">
        <ele>120</ele>
        <time>2017-01-03T12:44:23Z</time>
      </trkpt>
      <trkpt lat="43.70665" lon="3.89872">
        <ele>120</ele>
        <time>2017-01-03T12:46:23Z</time>
      </trkpt>
      <trkpt lat="43.70676" lon="3.89869">
        <ele>121</ele>
        <time>2017-01-03T12:48:23Z</time>
      </trkpt>
      <trkpt lat="43.70748" lon="3.89924">
        <ele>129</ele>
        <time>2017-01-03T12:50:23Z</time>
      </trkpt>
      <trkpt lat="43.70767" lon="3.89946">
        <ele>129</ele>
        <time>2017-01-03T12:52:23Z</time>
      </trkpt>
      <trkpt lat="43.70823" lon="3.89956">
        <ele>131</ele>
        <time>2017-01-03T12:54:23Z</time>
      </trkpt>
      <trkpt lat="43.70846" lon="3.89955">
        <ele>131</ele>
        <time>2017-01-03T12:56:23Z</time>
      </trkpt>
      <trkpt lat="43.70855" lon="3.89941">
        <ele>132</ele>
        <time>2017-01-03T12:58:23Z</time>
      </trkpt>
      <trkpt lat="43.70882" lon="3.89831">
        <ele>138</ele>
        <time>2017-01-03T13:00:23Z</time>
      </trkpt>
      <trkpt lat="43.709" lon="3.89815">
        <ele>141</ele>
        <time>2017-01-03T13:02:23Z</time>
      </trkpt>
      <trkpt lat="43.70946" lon="3.89813">
        <ele>142</ele>
        <time>2017-01-03T13:04:23Z</time>
      </trkpt>
      <trkpt lat="43.7099" lon="3.89798">
        <ele>142</ele>
        <time>2017-01-03T13:06:23Z</time>
      </trkpt>
      <trkpt lat="43.71015" lon="3.8977">
        <ele>143</ele>
        <time>2017-01-03T13:08:23Z</time>
      </trkpt>
      <trkpt lat="43.71049" lon="3.89747">
        <ele>143</ele>
        <time>2017-01-03T13:10:23Z</time>
      </trkpt>
      <trkpt lat="43.71093" lon="3.89733">
        <ele>141</ele>
        <time>2017-01-03T13:12:23Z</time>
      </trkpt>
      <trkpt lat="43.71162" lon="3.89692">
        <ele>132</ele>
        <time>2017-01-03T13:14:23Z</time>
      </trkpt>
      <trkpt lat="43.71217" lon="3.89696">
        <ele>127</ele>
        <time>2017-01-03T13:16:23Z</time>
      </trkpt>
      <trkpt lat="43.71241" lon="3.89691">
        <ele>124</ele>
        <time>2017-01-03T13:18:23Z</time>
      </trkpt>
      <trkpt lat="43.71486" lon="3.89718">
        <ele>107</ele>
        <time>2017-01-03T13:20:23Z</time>
      </trkpt>
      <trkpt lat="43.71497" lon="3.89724">
        <ele>107</ele>
        <time>2017-01-03T13:22:23Z</time>
      </trkpt>
      <trkpt lat="43.71516" lon="3.89719">
        <ele>106</ele>
        <time>2017-01-03T13:24:23Z</time>
      </trkpt>
      <trkpt lat="43.71755" lon="3.89648">
        <ele>104</ele>
        <time>2017-01-03T13:26:23Z</time>
      </trkpt>
      <trkpt lat="43.7186" lon="3.89601">
        <ele>106</ele>
        <time>2017-01-03T13:28:23Z</time>
      </trkpt>
      <trkpt lat="43.71873" lon="3.89586">
        <ele>106</ele>
        <time>2017-01-03T13:30:23Z</time>
      </trkpt>
      <trkpt lat="43.71972" lon="3.8952">
        <ele>108</ele>
        <time>2017-01-03T13:32:23Z</time>
      </trkpt>
      <trkpt lat="43.72076" lon="3.8946">
        <ele>107</ele>
        <time>2017-01-03T13:34:23Z</time>
      </trkpt>
      <trkpt lat="43.72126" lon="3.89462">
        <ele>109</ele>
        <time>2017-01-03T13:36:23Z</time>
      </trkpt>
      <trkpt lat="43.72156" lon="3.89453">
        <ele>111</ele>
        <time>2017-01-03T13:38:23Z</time>
      </trkpt>
      <trkpt lat="43.72224" lon="3.89457">
        <ele>110</ele>
        <time>2017-01-03T13:40:23Z</time>
      </trkpt>
      <trkpt lat="43.72247" lon="3.89469">
        <ele>109</ele>
        <time>2017-01-03T13:42:23Z</time>
      </trkpt>
      <trkpt lat="43.72266" lon="3.89462">
        <ele>110</ele>
        <time>2017-01-03T13:44:23Z</time>
      </trkpt>
      <trkpt lat="43.72295" lon="3.89424">
        <ele>111</ele>
        <time>2017-01-03T13:46:23Z</time>
      </trkpt>
      <trkpt lat="43.72299" lon="3.89414">
        <ele>111</ele>
        <time>2017-01-03T13:48:23Z</time>
      </trkpt>
      <trkpt lat="43.72335" lon="3.89386">
        <ele>111</ele>
        <time>2017-01-03T13:50:23Z</time>
      </trkpt>
      <trkpt lat="43.72395" lon="3.89358">
        <ele>114</ele>
        <time>2017-01-03T13:52:23Z</time>
      </trkpt>
      <trkpt lat="43.72414" lon="3.89339">
        <ele>115</ele>
        <time>2017-01-03T13:54:23Z</time>
      </trkpt>
      <trkpt lat="43.72465" lon="3.89301">
        <ele>114</ele>
        <time>2017-01-03T13:56:23Z</time>
      </trkpt>
      <trkpt lat="43.72586" lon="3.89246">
        <ele>112</ele>
        <time>2017-01-03T13:58:23Z</time>
      </trkpt>
      <trkpt lat="43.7258" lon="3.89229">
        <ele>112</ele>
        <time>2017-01-03T14:00:23Z</time>
      </trkpt>
      <trkpt lat="43.7258" lon="3.89205">
        <ele>113</ele>
        <time>2017-01-03T14:02:23Z</time>
      </trkpt>
      <trkpt lat="43.72592" lon="3.89177">
        <ele>113</ele>
        <time>2017-01-03T14:04:23Z</time>
      </trkpt>
      <trkpt lat="43.72671" lon="3.89093">
        <ele>115</ele>
        <time>2017-01-03T14:06:23Z</time>
      </trkpt>
      <trkpt lat="43.72709" lon="3.8906">
        <ele>116</ele>
        <time>2017-01-03T14:08:23Z</time>
      </trkpt>
      <trkpt lat="43.72758" lon="3.89027">
        <ele>118</ele>
        <time>2017-01-03T14:10:23Z</time>
      </trkpt>
      <trkpt lat="43.72805" lon="3.88975">
        <ele>119</ele>
        <time>2017-01-03T14:12:23Z</time>
      </trkpt>
      <trkpt lat="43.72811" lon="3.88956">
        <ele>120</ele>
        <time>2017-01-03T14:14:23Z</time>
      </trkpt>
      <trkpt lat="43.72848" lon="3.88908">
        <ele>121</ele>
        <time>2017-01-03T14:16:23Z</time>
      </trkpt>
      <trkpt lat="43.72895" lon="3.88851">
        <ele>123</ele>
        <time>2017-01-03T14:18:23Z</time>
      </trkpt>
      <trkpt lat="43.72956" lon="3.88798">
        <ele>124</ele>
        <time>2017-01-03T14:20:23Z</time>
      </trkpt>
      <trkpt lat="43.72961" lon="3.88785">
        <ele>125</ele>
        <time>2017-01-03T14:22:23Z</time>
      </trkpt>
      <trkpt lat="43.72999" lon="3.88746">
        <ele>125</ele>
        <time>2017-01-03T14:24:23Z</time>
      </trkpt>
      <trkpt lat="43.73046" lon="3.88669">
        <ele>128</ele>
        <time>2017-01-03T14:26:23Z</time>
      </trkpt>
      <trkpt lat="43.73065" lon="3.88622">
        <ele>129</ele>
        <time>2017-01-03T14:28:23Z</time>
      </trkpt>
      <trkpt lat="43.73078" lon="3.88567">
        <ele>130</ele>
        <time>2017-01-03T14:30:23Z</time>
      </trkpt>
      <trkpt lat="43.7308" lon="3.88529">
        <ele>129</ele>
        <time>2017-01-03T14:32:23Z</time>
      </trkpt>
      <trkpt lat="43.73106" lon="3.88539">
        <ele>129</ele>
        <time>2017-01-03T14:34:23Z</time>
      </trkpt>
      <trkpt lat="43.73187" lon="3.8856">
        <ele>130</ele>
        <time>2017-01-03T14:36:23Z</time>
      </trkpt>
      <trkpt lat="43.73259" lon="3.88602">
        <ele>130</ele>
        <time>2017-01-03T14:38:23Z</time>
      </trkpt>
      <trkpt lat="43.73282" lon="3.88601">
        <ele>130</ele>
        <time>2017-01-03T14:40:23Z</time>
      </trkpt>
      <trkpt lat="43.73302" lon="3.88615">
        <ele>130</ele>
        <time>2017-01-03T14:42:23Z</time>
      </trkpt>
      <trkpt lat="43.73314" lon="3.88667">
        <ele>132</ele>
        <time>2017-01-03T14:44:23Z</time>
      </trkpt>
      <trkpt lat="43.73318" lon="3.88708">
        <ele>132</ele>
        <time>2017-01-03T14:46:23Z</time>
      </trkpt>
      <trkpt lat="43.73343" lon="3.88754">
        <ele>134</ele>
        <time>2017-01-03T14:48:23Z</time>
      </trkpt>
      <trkpt lat="43.73399" lon="3.88798">
        <ele>135</ele>
        <time>2017-01-03T14:50:23Z</time>
      </trkpt>
      <trkpt lat="43.73448" lon="3.88833">
        <ele>136</ele>
        <time>2017-01-03T14:52:23Z</time>
      </trkpt>
      <trkpt lat="43.73481" lon="3.88896">
        <ele>133</ele>
        <time>2017-01-03T14:54:23Z</time>
      </trkpt>
      <trkpt lat="43.73531" lon="3.88926">
        <ele>133</ele>
        <time>2017-01-03T14:56:23Z</time>
      </trkpt>
      <trkpt lat="43.73581" lon="3.88969">
        <ele>133</ele>
        <time>2017-01-03T14:58:23Z</time>
      </trkpt>
      <trkpt lat="43.73619" lon="3.88981">
        <ele>134</ele>
        <time>2017-01-03T15:00:23Z</time>
      </trkpt>
      <trkpt lat="43.73645" lon="3.89">
        <ele>134</ele>
        <time>2017-01-03T15:02:23Z</time>
      </trkpt>
      <trkpt lat="43.73667" lon="3.8903">
        <ele>137</ele>
        <time>2017-01-03T15:04:23Z</time>
      </trkpt>
      <trkpt lat="43.73693" lon="3.89078">
        <ele>139</ele>
        <time>2017-01-03T15:06:23Z</time>
      </trkpt>
      <trkpt lat="43.73702" lon="3.89108">
        <ele>140</ele>
        <time>2017-01-03T15:08:23Z</time>
      </trkpt>
      <trkpt lat="43.73744" lon="3.89158">
        <ele>140</ele>
        <time>2017-01-03T15:10:23Z</time>
      </trkpt>
      <trkpt lat="43.73781" lon="3.89179">
        <ele>141</ele>
        <time>2017-01-03T15:12:23Z</time>
      </trkpt>
      <trkpt lat="43.7381" lon="3.89214">
        <ele>143</ele>
        <time>2017-01-03T15:14:23Z</time>
      </trkpt>
      <trkpt lat="43.73896" lon="3.8921">
        <ele>142</ele>
        <time>2017-01-03T15:16:23Z</time>
      </trkpt>
      <trkpt lat="43.73929" lon="3.89196">
        <ele>141</ele>
        <time>2017-01-03T15:18:23Z</time>
      </trkpt>
      <trkpt lat="43.73952" lon="3.8919">
        <ele>142</ele>
        <time>2017-01-03T15:20:23Z</time>
      </trkpt>
      <trkpt lat="43.73995" lon="3.89192">
        <ele>144</ele>
        <time>2017-01-03T15:22:23Z</time>
      </trkpt>
      <trkpt lat="43.74028" lon="3.89176">
        <ele>144</ele>
        <time>2017-01-03T15:24:23Z</time>
      </trkpt>
      <trkpt lat="43.74066" lon="3.89182">
        <ele>145</ele>
        <time>2017-01-03T15:26:23Z</time>
      </trkpt>
      <trkpt lat="43.74087" lon="3.89175">
        <ele>145</ele>
        <time>2017-01-03T15:28:23Z</time>
      </trkpt>
      <trkpt lat="43.74116" lon="3.89157">
        <ele>143</ele>
        <time>2017-01-03T15:30:23Z</time>
      </trkpt>
      <trkpt lat="43.74198" lon="3.89123">
        <ele>138</ele>
        <time>2017-01-03T15:32:23Z</time>
      </trkpt>
      <trkpt lat="43.74212" lon="3.89111">
        <ele>137</ele>
        <time>2017-01-03T15:34:23Z</time>
      </trkpt>
      <trkpt lat="43.74223" lon="3.89091">
        <ele>136</ele>
        <time>2017-01-03T15:36:23Z</time>
      </trkpt>
      <trkpt lat="43.74259" lon="3.89058">
        <ele>133</ele>
        <time>2017-01-03T15:38:23Z</time>
      </trkpt>
      <trkpt lat="43.74305" lon="3.89034">
        <ele>133</ele>
        <time>2017-01-03T15:40:23Z</time>
      </trkpt>
      <trkpt lat="43.7433" lon="3.89026">
        <ele>134</ele>
        <time>2017-01-03T15:42:23Z</time>
      </trkpt>
      <trkpt lat="43.74364" lon="3.88993">
        <ele>134</ele>
        <time>2017-01-03T15:44:23Z</time>
      </trkpt>
      <trkpt lat="43.74384" lon="3.88984">
        <ele>133</ele>
        <time>2017-01-03T15:46:23Z</time>
      </trkpt>
      <trkpt lat="43.74412" lon="3.88963">
        <ele>132</ele>
        <time>2017-01-03T15:48:23Z</time>
      </trkpt>
      <trkpt lat="43.74447" lon="3.88954">
        <ele>129</ele>
        <time>2017-01-03T15:50:23Z</time>
      </trkpt>
      <trkpt lat="43.74512" lon="3.88911">
        <ele>127</ele>
        <time>2017-01-03T15:52:23Z</time>
      </trkpt>
      <trkpt lat="43.74536" lon="3.88884">
        <ele>129</ele>
        <time>2017-01-03T15:54:23Z</time>
      </trkpt>
      <trkpt lat="43.74581" lon="3.88876">
        <ele>129</ele>
        <time>2017-01-03T15:56:23Z</time>
      </trkpt>
      <trkpt lat="43.74633" lon="3.88854">
        <ele>132</ele>
        <time>2017-01-03T15:58:23Z</time>
      </trkpt>
      <trkpt lat="43.74656" lon="3.88841">
        <ele>132</ele>
        <time>2017-01-03T16:00:23Z</time>
      </trkpt>
      <trkpt lat="43.74685" lon="3.88833">
        <ele>133</ele>
        <time>2017-01-03T16:02:23Z</time>
      </trkpt>
      <trkpt lat="43.74712" lon="3.88809">
        <ele>134</ele>
        <time>2017-01-03T16:04:23Z</time>
      </trkpt>
      <trkpt lat="43.74732" lon="3.88809">
        <ele>134</ele>
        <time>2017-01-03T16:06:23Z</time>
      </trkpt>
      <trkpt lat="43.74796" lon="3.88852">
        <ele>134</ele>
        <time>2017-01-03T16:08:23Z</time>
      </trkpt>
      <trkpt lat="43.74828" lon="3.88852">
        <ele>135</ele>
        <time>2017-01-03T16:10:23Z</time>
      </trkpt>
      <trkpt lat="43.74867" lon="3.88837">
        <ele>133</ele>
        <time>2017-01-03T16:12:23Z</time>
      </trkpt>
      <trkpt lat="43.74886" lon="3.88844">
        <ele>131</ele>
        <time>2017-01-03T16:14:23Z</time>
      </trkpt>
      <trkpt lat="43.74906" lon="3.88875">
        <ele>131</ele>
        <time>2017-01-03T16:16:23Z</time>
      </trkpt>
      <trkpt lat="43.74918" lon="3.88913">
        <ele>132</ele>
        <time>2017-01-03T16:18:23Z</time>
      </trkpt>
      <trkpt lat="43.74926" lon="3.8892">
        <ele>132</ele>
        <time>2017-01-03T16:20:23Z</time>
      </trkpt>
      <trkpt lat="43.75014" lon="3.88753">
        <ele>130</ele>
        <time>2017-01-03T16:22:23Z</time>
      </trkpt>
      <trkpt lat="43.75032" lon="3.88736">
        <ele>130</ele>
        <time>2017-01-03T16:24:23Z</time>
      </trkpt>
      <trkpt lat="43.75078" lon="3.88724">
        <ele>130</ele>
        <time>2017-01-03T16:26:23Z</time>
      </trkpt>
      <trkpt lat="43.75095" lon="3.88708">
        <ele>130</ele>
        <time>2017-01-03T16:28:23Z</time>
      </trkpt>
      <trkpt lat="43.75128" lon="3.88703">
        <ele>131</ele>
        <time>2017-01-03T16:30:23Z</time>
      </trkpt>
      <trkpt lat="43.75153" lon="3.88687">
        <ele>132</ele>
        <time>2017-01-03T16:32:23Z</time>
      </trkpt>
      <trkpt lat="43.75199" lon="3.88617">
        <ele>132</ele>
        <time>2017-01-03T16:34:23Z</time>
      </trkpt>
      <trkpt lat="43.75226" lon="3.88603">
        <ele>131</ele>
        <time>2017-01-03T16:36:23Z</time>
      </trkpt>
      <trkpt lat="43.75249" lon="3.88578">
        <ele>131</ele>
        <time>2017-01-03T16:38:23Z</time>
      </trkpt>
      <trkpt lat="43.75284" lon="3.88524">
        <ele>130</ele>
        <time>2017-01-03T16:40:23Z</time>
      </trkpt>
      <trkpt lat="43.75329" lon="3.88497">
        <ele>130</ele>
        <time>2017-01-03T16:42:23Z</time>
      </trkpt>
      <trkpt lat="43.75527" lon="3.88297">
        <ele>139</ele>
        <time>2017-01-03T16:44:23Z</time>
      </trkpt>
      <trkpt lat="43.75546" lon="3.8827">
        <ele>140</ele>
        <time>2017-01-03T16:46:23Z</time>
      </trkpt>
      <trkpt lat="43.75658" lon="3.88196">
        <ele>148</ele>
        <time>2017-01-03T16:48:23Z</time>
      </trkpt>
      <trkpt lat="43.75726" lon="3.88171">
        <ele>147</ele>
        <time>2017-01-03T16:50:23Z</time>
      </trkpt>
      <trkpt lat="43.75772" lon="3.88135">
        <ele>145</ele>
        <time>2017-01-03T16:52:23Z</time>
      </trkpt>
      <trkpt lat="43.75818" lon="3.88069">
        <ele>142</ele>
        <time>2017-01-03T16:54:23Z</time>
      </trkpt>
      <trkpt lat="43.75848" lon="3.87995">
        <ele>138</ele>
        <time>2017-01-03T16:56:23Z</time>
      </trkpt>
      <trkpt lat="43.7588" lon="3.87948">
        <ele>134</ele>
        <time>2017-01-03T16:58:23Z</time>
      </trkpt>
      <trkpt lat="43.75957" lon="3.87877">
        <ele>126</ele>
        <time>2017-01-03T17:00:23Z</time>
      </trkpt>
      <trkpt lat="43.76027" lon="3.87845">
        <ele>121</ele>
        <time>2017-01-03T17:02:23Z</time>
      </trkpt>
      <trkpt lat="43.76053" lon="3.87818">
        <ele>119</ele>
        <time>2017-01-03T17:04:23Z</time>
      </trkpt>
      <trkpt lat="43.76071" lon="3.87846">
        <ele>118</ele>
        <time>2017-01-03T17:06:23Z</time>
      </trkpt>
      <trkpt lat="43.76102" lon="3.87854">
        <ele>115</ele>
        <time>2017-01-03T17:08:23Z</time>
      </trkpt>
      <trkpt lat="43.76151" lon="3.87839">
        <ele>111</ele>
        <time>2017-01-03T17:10:23Z</time>
      </trkpt>
      <trkpt lat="43.76204" lon="3.87736">
        <ele>107</ele>
        <time>2017-01-03T17:12:23Z</time>
      </trkpt>
      <trkpt lat="43.76225" lon="3.87708">
        <ele>105</ele>
        <time>2017-01-03T17:14:23Z</time>
      </trkpt>
      <trkpt lat="43.76248" lon="3.87687">
        <ele>103</ele>
        <time>2017-01-03T17:16:23Z</time>
      </trkpt>
      <trkpt lat="43.76269" lon="3.87636">
        <ele>102</ele>
        <time>2017-01-03T17:18:23Z</time>
      </trkpt>
      <trkpt lat="43.76297" lon="3.8765">
        <ele>101</ele>
        <time>2017-01-03T17:20:23Z</time>
      </trkpt>
      <trkpt lat="43.7632" lon="3.87685">
        <ele>100</ele>
        <time>2017-01-03T17:22:23Z</time>
      </trkpt>
      <trkpt lat="43.76336" lon="3.8773">
        <ele>101</ele>
        <time>2017-01-03T17:24:23Z</time>
      </trkpt>
      <trkpt lat="43.76331" lon="3.87848">
        <ele>101</ele>
        <time>2017-01-03T17:26:23Z</time>
      </trkpt>
      <trkpt lat="43.76389" lon="3.87998">
        <ele>98</ele>
        <time>2017-01-03T17:28:23Z</time>
      </trkpt>
      <trkpt lat="43.76516" lon="3.87861">
        <ele>97</ele>
        <time>2017-01-03T17:30:23Z</time>
      </trkpt>
      <trkpt lat="43.76681" lon="3.87738">
        <ele>103</ele>
        <time>2017-01-03T17:32:23Z</time>
      </trkpt>
      <trkpt lat="43.76753" lon="3.87706">
        <ele>102</ele>
        <time>2017-01-03T17:34:23Z</time>
      </trkpt>
      <trkpt lat="43.7683" lon="3.87651">
        <ele>101</ele>
        <time>2017-01-03T17:36:23Z</time>
      </trkpt>
      <trkpt lat="43.76864" lon="3.87608">
        <ele>103</ele>
        <time>2017-01-03T17:38:23Z</time>
      </trkpt>
      <trkpt lat="43.76923" lon="3.87467">
        <ele>100</ele>
        <time>2017-01-03T17:40:23Z</time>
      </trkpt>
      <trkpt lat="43.76961" lon="3.87327">
        <ele>98</ele>
        <time>2017-01-03T17:42:23Z</time>
      </trkpt>
      <trkpt lat="43.76971" lon="3.87334">
        <ele>99</ele>
        <time>2017-01-03T17:44:23Z</time>
      </trkpt>
      <trkpt lat="43.77011" lon="3.87355">
        <ele>103</ele>
        <time>2017-01-03T17:46:23Z</time>
      </trkpt>
      <trkpt lat="43.7703" lon="3.87359">
        <ele>105</ele>
        <time>2017-01-03T17:48:23Z</time>
      </trkpt>
      <trkpt lat="43.7704" lon="3.87353">
        <ele>105</ele>
        <time>2017-01-03T17:50:23Z</time>
      </trkpt>
      <trkpt lat="43.77052" lon="3.87319">
        <ele>105</ele>
        <time>2017-01-03T17:52:23Z</time>
      </trkpt>
      <trkpt lat="43.77071" lon="3.87296">
        <ele>106</ele>
        <time>2017-01-03T17:54:23Z</time>
      </trkpt>
      <trkpt lat="43.77083" lon="3.87296">
        <ele>107</ele>
        <time>2017-01-03T17:56:23Z</time>
      </trkpt>
      <trkpt lat="43.77086" lon="3.87259">
        <ele>105</ele>
        <time>2017-01-03T17:58:23Z</time>
      </trkpt>
      <trkpt lat="43.77104" lon="3.87263">
        <ele>105</ele>
        <time>2017-01-03T18:00:23Z</time>
      </trkpt>
      <trkpt lat="43.77125" lon="3.87278">
        <ele>106</ele>
        <time>2017-01-03T18:02:23Z</time>
      </trkpt>
      <trkpt lat="43.77186" lon="3.87277">
        <ele>106</ele>
        <time>2017-01-03T18:04:23Z</time>
      </trkpt>
      <trkpt lat="43.77209" lon="3.87294">
        <ele>108</ele>
        <time>2017-01-03T18:06:23Z</time>
      </trkpt>
      <trkpt lat="43.77224" lon="3.87286">
        <ele>109</ele>
        <time>2017-01-03T18:08:23Z</time>
      </trkpt>
      <trkpt lat="43.77235" lon="3.87259">
        <ele>108</ele>
        <time>2017-01-03T18:10:23Z</time>
      </trkpt>
      <trkpt lat="43.77298" lon="3.87187">
        <ele>108</ele>
        <time>2017-01-03T18:12:23Z</time>
      </trkpt>
      <trkpt lat="43.77322" lon="3.87211">
        <ele>109</ele>
        <time>2017-01-03T18:14:23Z</time>
      </trkpt>
      <trkpt lat="43.77361" lon="3.87269">
        <ele>110</ele>
        <time>2017-01-03T18:16:23Z</time>
      </trkpt>
      <trkpt lat="43.77376" lon="3.87284">
        <ele>110</ele>
        <time>2017-01-03T18:18:23Z</time>
      </trkpt>
      <trkpt lat="43.77387" lon="3.87322">
        <ele>110</ele>
        <time>2017-01-03T18:20:23Z</time>
      </trkpt>
      <trkpt lat="43.77396" lon="3.87329">
        <ele>110</ele>
        <time>2017-01-03T18:22:23Z</time>
      </trkpt>
      <trkpt lat="43.77415" lon="3.87079">
        <ele>112</ele>
        <time>2017-01-03T18:24:23Z</time>
      </trkpt>
      <trkpt lat="43.77431" lon="3.87031">
        <ele>112</ele>
        <time>2017-01-03T18:26:23Z</time>
      </trkpt>
      <trkpt lat="43.77452" lon="3.87019">
        <ele>111</ele>
        <time>2017-01-03T18:28:23Z</time>
      </trkpt>
      <trkpt lat="43.77463" lon="3.86987">
        <ele>111</ele>
        <time>2017-01-03T18:30:23Z</time>
      </trkpt>
      <trkpt lat="43.7746" lon="3.86959">
        <ele>111</ele>
        <time>2017-01-03T18:32:23Z</time>
      </trkpt>
      <trkpt lat="43.77483" lon="3.86941">
        <ele>111</ele>
        <time>2017-01-03T18:34:23Z</time>
      </trkpt>
      <trkpt lat="43.77522" lon="3.86936">
        <ele>112</ele>
        <time>2017-01-03T18:36:23Z</time>
      </trkpt>
      <trkpt lat="43.77557" lon="3.86943">
        <ele>113</ele>
        <time>2017-01-03T18:38:23Z</time>
      </trkpt>
      <trkpt lat="43.77622" lon="3.86971">
        <ele>114</ele>
        <time>2017-01-03T18:40:23Z</time>
      </trkpt>
      <trkpt lat="43.77654" lon="3.86981">
        <ele>115</ele>
        <time>2017-01-03T18:42:23Z</time>
      </trkpt>
      <trkpt lat="43.77743" lon="3.86995">
        <ele>119</ele>
        <time>2017-01-03T18:44:23Z</time>
      </trkpt>
      <trkpt lat="43.77767" lon="3.87006">
        <ele>119</ele>
        <time>2017-01-03T18:46:23Z</time>
      </trkpt>
      <trkpt lat="43.778" lon="3.87001">
        <ele>118</ele>
        <time>2017-01-03T18:48:23Z</time>
      </trkpt>
      <trkpt lat="43.77819" lon="3.87014">
        <ele>117</ele>
        <time>2017-01-03T18:50:23Z</time>
      </trkpt>
      <trkpt lat="43.7785" lon="3.86922">
        <ele>115</ele>
        <time>2017-01-03T18:52:23Z</time>
      </trkpt>
      <trkpt lat="43.77929" lon="3.86919">
        <ele>112</ele>
        <time>2017-01-03T18:54:23Z</time>
      </trkpt>
      <trkpt lat="43.78024" lon="3.86952">
        <ele>115</ele>
        <time>2017-01-03T18:56:23Z</time>
      </trkpt>
      <trkpt lat="43.78036" lon="3.86966">
        <ele>116</ele>
        <time>2017-01-03T18:58:23Z</time>
      </trkpt>
      <trkpt lat="43.78067" lon="3.86974">
        <ele>116</ele>
        <time>2017-01-03T19:00:23Z</time>
      </trkpt>
      <trkpt lat="43.78067" lon="3.86989">
        <ele>116</ele>
        <time>2017-01-03T19:02:23Z</time>
      </trkpt>
      <trkpt lat="43.78077" lon="3.86991">
        <ele>117</ele>
        <time>2017-01-03T19:04:23Z</time>
      </trkpt>
      <trkpt lat="43.78134" lon="3.86988">
        <ele>118</ele>
        <time>2017-01-03T19:06:23Z</time>
      </trkpt>
      <trkpt lat="43.78199" lon="3.8699">
        <ele>119</ele>
        <time>2017-01-03T19:08:23Z</time>
      </trkpt>
      <trkpt lat="43.78264" lon="3.8699">
        <ele>120</ele>
        <time>2017-01-03T19:10:23Z</time>
      </trkpt>
      <trkpt lat="43.78283" lon="3.86966">
        <ele>121</ele>
        <time>2017-01-03T19:12:23Z</time>
      </trkpt>
      <trkpt lat="43.78326" lon="3.86984">
        <ele>121</ele>
        <time>2017-01-03T19:14:23Z</time>
      </trkpt>
      <trkpt lat="43.78378" lon="3.86995">
        <ele>124</ele>
        <time>2017-01-03T19:16:23Z</time>
      </trkpt>
      <trkpt lat="43.78395" lon="3.87005">
        <ele>125</ele>
        <time>2017-01-03T19:18:23Z</time>
      </trkpt>
      <trkpt lat="43.78426" lon="3.87014">
        <ele>126</ele>
        <time>2017-01-03T19:20:23Z</time>
      </trkpt>
      <trkpt lat="43.78494" lon="3.87051">
        <ele>126</ele>
        <time>2017-01-03T19:22:23Z</time>
      </trkpt>
      <trkpt lat="43.78541" lon="3.8706">
        <ele>128</ele>
        <time>2017-01-03T19:24:23Z</time>
      </trkpt>
      <trkpt lat="43.78576" lon="3.87073">
        <ele>129</ele>
        <time>2017-01-03T19:26:23Z</time>
      </trkpt>
      <trkpt lat="43.78622" lon="3.87077">
        <ele>132</ele>
        <time>2017-01-03T19:28:23Z</time>
      </trkpt>
      <trkpt lat="43.78656" lon="3.87101">
        <ele>134</ele>
        <time>2017-01-03T19:30:23Z</time>
      </trkpt>
      <trkpt lat="43.78725" lon="3.87176">
        <ele>136</ele>
        <time>2017-01-03T19:32:23Z</time>
      </trkpt>
      <trkpt lat="43.78761" lon="3.87219">
        <ele>135</ele>
        <time>2017-01-03T19:34:23Z</time>
      </trkpt>
      <trkpt lat="43.78837" lon="3.87256">
        <ele>133</ele>
        <time>2017-01-03T19:36:23Z</time>
      </trkpt>
      <trkpt lat="43.78874" lon="3.87281">
        <ele>133</ele>
        <time>2017-01-03T19:38:23Z</time>
      </trkpt>
      <trkpt lat="43.78887" lon="3.87305">
        <ele>133</ele>
        <time>2017-01-03T19:40:23Z</time>
      </trkpt>
      <trkpt lat="43.7891" lon="3.87303">
        <ele>134</ele>
        <time>2017-01-03T19:42:23Z</time>
      </trkpt>
      <trkpt lat="43.78942" lon="3.87293">
        <ele>135</ele>
        <time>2017-01-03T19:44:23Z</time>
      </trkpt>
      <trkpt lat="43.79048" lon="3.87298">
        <ele>141</ele>
        <time>2017-01-03T19:46:23Z</time>
      </trkpt>
      <trkpt lat="43.79129" lon="3.87292">
        <ele>147</ele>
        <time>2017-01-03T19:48:23Z</time>
      </trkpt>
      <trkpt lat="43.79197" lon="3.87261">
        <ele>151</ele>
        <time>2017-01-03T19:50:23Z</time>
      </trkpt>
      <trkpt lat="43.79277" lon="3.87235">
        <ele>154</ele>
        <time>2017-01-03T19:52:23Z</time>
      </trkpt>
      <trkpt lat="43.79309" lon="3.87245">
        <ele>154</ele>
        <time>2017-01-03T19:54:23Z</time>
      </trkpt>
      <trkpt lat="43.79336" lon="3.87247">
        <ele>154</ele>
        <time>2017-01-03T19:56:23Z</time>
      </trkpt>
      <trkpt lat="43.7936" lon="3.8726">
        <ele>153</ele>
        <time>2017-01-03T19:58:23Z</time>
      </trkpt>
      <trkpt lat="43.79387" lon="3.87284">
        <ele>153</ele>
        <time>2017-01-03T20:00:23Z</time>
      </trkpt>
      <trkpt lat="43.79422" lon="3.87318">
        <ele>151</ele>
        <time>2017-01-03T20:02:23Z</time>
      </trkpt>
      <trkpt lat="43.79475" lon="3.87318">
        <ele>150</ele>
        <time>2017-01-03T20:04:23Z</time>
      </trkpt>
      <trkpt lat="43.79617" lon="3.87293">
        <ele>145</ele>
        <time>2017-01-03T20:06:23Z</time>
      </trkpt>
      <trkpt lat="43.79674" lon="3.87295">
        <ele>144</ele>
        <time>2017-01-03T20:08:23Z</time>
      </trkpt>
      <trkpt lat="43.79678" lon="3.87312">
        <ele>143</ele>
        <time>2017-01-03T20:10:23Z</time>
      </trkpt>
      <trkpt lat="43.79725" lon="3.87286">
        <ele>144</ele>
        <time>2017-01-03T20:12:23Z</time>
      </trkpt>
      <trkpt lat="43.79824" lon="3.87223">
        <ele>149</ele>
        <time>2017-01-03T20:14:23Z</time>
      </trkpt>
      <trkpt lat="43.79836" lon="3.87212">
        <ele>150</ele>
        <time>2017-01-03T20:16:23Z</time>
      </trkpt>
      <trkpt lat="43.79845" lon="3.87217">
        <ele>150</ele>
        <time>2017-01-03T20:18:23Z</time>
      </trkpt>
      <trkpt lat="43.79853" lon="3.87207">
        <ele>151</ele>
        <time>2017-01-03T20:20:23Z</time>
      </trkpt>
      <trkpt lat="43.79893" lon="3.87205">
        <ele>152</ele>
        <time>2017-01-03T20:22:23Z</time>
      </trkpt>
      <trkpt lat="43.80041" lon="3.87172">
        <ele>154</ele>
        <time>2017-01-03T20:24:23Z</time>
      </trkpt>
      <trkpt lat="43.80056" lon="3.87177">
        <ele>155</ele>
        <time>2017-01-03T20:26:23Z</time>
      </trkpt>
      <trkpt lat="43.80066" lon="3.87167">
        <ele>155</ele>
        <time>2017-01-03T20:28:23Z</time>
      </trkpt>
      <trkpt lat="43.80123" lon="3.87171">
        <ele>153</ele>
        <time>2017-01-03T20:30:23Z</time>
      </trkpt>
      <trkpt lat="43.80365" lon="3.87258">
        <ele>149</ele>
        <time>2017-01-03T20:32:23Z</time>
      </trkpt>
      <trkpt lat="43.80387" lon="3.87261">
        <ele>149</ele>
        <time>2017-01-03T20:34:23Z</time>
      </trkpt>
      <trkpt lat="43.80394" lon="3.87278">
        <ele>149</ele>
        <time>2017-01-03T20:36:23Z</time>
      </trkpt>
      <trkpt lat="43.80407" lon="3.87284">
        <ele>148</ele>
        <time>2017-01-03T20:38:23Z</time>
      </trkpt>
      <trkpt lat="43.80415" lon="3.87268">
        <ele>148</ele>
        <time>2017-01-03T20:40:23Z</time>
      </trkpt>
      <trkpt lat="43.80433" lon="3.87235">
        <ele>148</ele>
        <time>2017-01-03T20:42:23Z</time>
      </trkpt>
      <trkpt lat="43.80669" lon="3.87077">
        <ele>156</ele>
        <time>2017-01-03T20:44:23Z</time>
      </trkpt>
      <trkpt lat="43.80684" lon="3.87083">
        <ele>155</ele>
        <time>2017-01-03T20:46:23Z</time>
      </trkpt>
      <trkpt lat="43.80804" lon="3.87011">
        <ele>157</ele>
        <time>2017-01-03T20:48:23Z</time>
      </trkpt>
      <trkpt lat="43.80845" lon="3.87006">
        <ele>156</ele>
        <time>2017-01-03T20:50:23Z</time>
      </trkpt>
      <trkpt lat="43.80883" lon="3.86996">
        <ele>155</ele>
        <time>2017-01-03T20:52:23Z</time>
      </trkpt>
      <trkpt lat="43.80966" lon="3.86968">
        <ele>157</ele>
        <time>2017-01-03T20:54:23Z</time>
      </trkpt>
      <trkpt lat="43.81039" lon="3.86974">
        <ele>159</ele>
        <time>2017-01-03T20:56:23Z</time>
      </trkpt>
      <trkpt lat="43.81178" lon="3.86934">
        <ele>164</ele>
        <time>2017-01-03T20:58:23Z</time>
      </trkpt>
      <trkpt lat="43.81216" lon="3.86892">
        <ele>166</ele>
        <time>2017-01-03T21:00:23Z</time>
      </trkpt>
      <trkpt lat="43.81239" lon="3.86893">
        <ele>167</ele>
        <time>2017-01-03T21:02:23Z</time>
      </trkpt>
      <trkpt lat="43.81293" lon="3.86865">
        <ele>171</ele>
        <time>2017-01-03T21:04:23Z</time>
      </trkpt>
      <trkpt lat="43.81308" lon="3.86849">
        <ele>172</ele>
        <time>2017-01-03T21:06:23Z</time>
      </trkpt>
      <trkpt lat="43.81406" lon="3.86801">
        <ele>173</ele>
        <time>2017-01-03T21:08:23Z</time>
      </trkpt>
      <trkpt lat="43.81465" lon="3.86783">
        <ele>175</ele>
        <time>2017-01-03T21:10:23Z</time>
      </trkpt>
      <trkpt lat="43.81489" lon="3.86774">
        <ele>176</ele>
        <time>2017-01-03T21:12:23Z</time>
      </trkpt>
      <trkpt lat="43.81498" lon="3.86783">
        <ele>175</ele>
        <time>2017-01-03T21:14:23Z</time>
      </trkpt>
      <trkpt lat="43.81522" lon="3.86843">
        <ele>173</ele>
        <time>2017-01-03T21:16:23Z</time>
      </trkpt>
      <trkpt lat="43.81534" lon="3.86899">
        <ele>170</ele>
        <time>2017-01-03T21:18:23Z</time>
      </trkpt>
      <trkpt lat="43.81557" lon="3.86976">
        <ele>167</ele>
        <time>2017-01-03T21:20:23Z</time>
      </trkpt>
      <trkpt lat="43.81579" lon="3.87061">
        <ele>167</ele>
        <time>2017-01-03T21:22:23Z</time>
      </trkpt>
      <trkpt lat="43.81614" lon="3.87112">
        <ele>169</ele>
        <time>2017-01-03T21:24:23Z</time>
      </trkpt>
      <trkpt lat="43.81652" lon="3.87153">
        <ele>169</ele>
        <time>2017-01-03T21:26:23Z</time>
      </trkpt>
      <trkpt lat="43.81659" lon="3.87182">
        <ele>168</ele>
        <time>2017-01-03T21:28:23Z</time>
      </trkpt>
      <trkpt lat="43.81657" lon="3.87206">
        <ele>168</ele>
        <time>2017-01-03T21:30:23Z</time>
      </trkpt>
      <trkpt lat="43.81674" lon="3.87314">
        <ele>166</ele>
        <time>2017-01-03T21:32:23Z</time>
      </trkpt>
      <trkpt lat="43.81677" lon="3.87356">
        <ele>165</ele>
        <time>2017-01-03T21:34:23Z</time>
      </trkpt>
      <trkpt lat="43.81689" lon="3.87396">
        <ele>166</ele>
        <time>2017-01-03T21:36:23Z</time>
      </trkpt>
      <trkpt lat="43.81695" lon="3.87469">
        <ele>165</ele>
        <time>2017-01-03T21:38:23Z</time>
      </trkpt>
      <trkpt lat="43.81699" lon="3.87521">
        <ele>165</ele>
        <time>2017-01-03T21:40:23Z</time>
      </trkpt>
      <trkpt lat="43.81705" lon="3.8756">
        <ele>166</ele>
        <time>2017-01-03T21:42:23Z</time>
      </trkpt>
      <trkpt lat="43.81732" lon="3.87653">
        <ele>167</ele>
        <time>2017-01-03T21:44:23Z</time>
      </trkpt>
      <trkpt lat="43.81705" lon="3.87709">
        <ele>164</ele>
        <time>2017-01-03T21:46:23Z</time>
      </trkpt>
      <trkpt lat="43.81656" lon="3.8778">
        <ele>163</ele>
        <time>2017-01-03T21:48:23Z</time>
      </trkpt>
      <trkpt lat="43.81648" lon="3.87796">
        <ele>163</ele>
        <time>2017-01-03T21:50:23Z</time>
      </trkpt>
      <trkpt lat="43.81654" lon="3.87806">
        <ele>163</ele>
        <time>2017-01-03T21:52:23Z</time>
      </trkpt>
      <trkpt lat="43.81679" lon="3.87808">
        <ele>163</ele>
        <time>2017-01-03T21:54:23Z</time>
      </trkpt>
      <trkpt lat="43.81706" lon="3.8782">
        <ele>162</ele>
        <time>2017-01-03T21:56:23Z</time>
      </trkpt>
      <trkpt lat="43.81722" lon="3.8782">
        <ele>162</ele>
        <time>2017-01-03T21:58:23Z</time>
      </trkpt>
      <trkpt lat="43.81735" lon="3.87843">
        <ele>161</ele>
        <time>2017-01-03T22:00:23Z</time>
      </trkpt>
      <trkpt lat="43.81721" lon="3.88038">
        <ele>154</ele>
        <time>2017-01-03T22:02:23Z</time>
      </trkpt>
      <trkpt lat="43.81701" lon="3.88128">
        <ele>152</ele>
        <time>2017-01-03T22:04:23Z</time>
      </trkpt>
      <trkpt lat="43.81764" lon="3.88128">
        <ele>155</ele>
        <time>2017-01-03T22:06:23Z</time>
      </trkpt>
      <trkpt lat="43.81872" lon="3.88154">
        <ele>160</ele>
        <time>2017-01-03T22:08:23Z</time>
      </trkpt>
      <trkpt lat="43.8194" lon="3.88161">
        <ele>160</ele>
        <time>2017-01-03T22:10:23Z</time>
      </trkpt>
      <trkpt lat="43.82085" lon="3.88097">
        <ele>161</ele>
        <time>2017-01-03T22:12:23Z</time>
      </trkpt>
      <trkpt lat="43.82208" lon="3.88092">
        <ele>159</ele>
        <time>2017-01-03T22:14:23Z</time>
      </trkpt>
      <trkpt lat="43.823" lon="3.88072">
        <ele>157</ele>
        <time>2017-01-03T22:16:23Z</time>
      </trkpt>
      <trkpt lat="43.82315" lon="3.88065">
        <ele>157</ele>
        <time>2017-01-03T22:18:23Z</time>
      </trkpt>
      <trkpt lat="43.82389" lon="3.88053">
        <ele>155</ele>
        <time>2017-01-03T22:20:23Z</time>
      </trkpt>
    </trkseg>
  </trk>
</gpx>